KLM786 TNCC-EHAM
Flight info
| Callsign | KLM786 |
|---|---|
| Flight time | 8h 21m |
| Altitude | 35000 |
| Route | SCAPA1K SCAPA DCT DAWIN/M084F350 DCT KAVAX DCT 27N055W 31N050W 36N040W/M084F370 42N030W 45N025W 46N020W 48N015W DCT OMOKO DCT GUNSO DCT GAPLI/N0481F370 DCT GAJIT DCT ENHAQ M197 REDFA |
| Aircraft | B744/H-SDE3FGHIM1M2RWXY/LB1 |
Departure
| Time | 2026-04-27 11:37 |
|---|---|
| Airport | Hato International Airport (TNCC) |
Arrival
| Time | 2026-04-27 19:59 |
|---|---|
| Airport | Amsterdam Airport Schiphol (EHAM) |
| Time | Latitude | Longitude | Altitude | Speed | Heading |
|---|---|---|---|---|---|
| 2026-04-27 10:42 | 12.18574 | -68.95874 | 49 ft | 0 kts | 192° |
| 2026-04-27 11:24 | 12.18589 | -68.95871 | 43 ft | 2 kts | 194° |
| 2026-04-27 11:24 | 12.18605 | -68.95866 | 44 ft | 2 kts | 195° |
| 2026-04-27 11:25 | 12.18621 | -68.95861 | 43 ft | 2 kts | 198° |
| 2026-04-27 11:25 | 12.18637 | -68.95855 | 44 ft | 2 kts | 202° |
| 2026-04-27 11:25 | 12.18652 | -68.95848 | 43 ft | 2 kts | 210° |
| 2026-04-27 11:25 | 12.18666 | -68.95839 | 43 ft | 2 kts | 225° |
| 2026-04-27 11:26 | 12.18676 | -68.95826 | 44 ft | 2 kts | 257° |
| 2026-04-27 11:26 | 12.18677 | -68.95810 | 45 ft | 2 kts | 283° |
| 2026-04-27 11:26 | 12.18676 | -68.95806 | 44 ft | 0 kts | 283° |
| 2026-04-27 11:30 | 12.18677 | -68.95811 | 45 ft | 2 kts | 283° |
| 2026-04-27 11:31 | 12.18685 | -68.95845 | 42 ft | 8 kts | 281° |
| 2026-04-27 11:31 | 12.18700 | -68.95921 | 47 ft | 15 kts | 282° |
| 2026-04-27 11:31 | 12.18730 | -68.96061 | 45 ft | 25 kts | 282° |
| 2026-04-27 11:31 | 12.18767 | -68.96240 | 44 ft | 25 kts | 282° |
| 2026-04-27 11:32 | 12.18803 | -68.96410 | 45 ft | 24 kts | 282° |
| 2026-04-27 11:32 | 12.18836 | -68.96573 | 45 ft | 23 kts | 283° |
| 2026-04-27 11:32 | 12.18871 | -68.96736 | 43 ft | 24 kts | 282° |
| 2026-04-27 11:32 | 12.18906 | -68.96905 | 46 ft | 24 kts | 282° |
| 2026-04-27 11:33 | 12.18943 | -68.97083 | 42 ft | 27 kts | 282° |
| 2026-04-27 11:33 | 12.18982 | -68.97265 | 42 ft | 26 kts | 282° |
| 2026-04-27 11:33 | 12.19018 | -68.97441 | 42 ft | 24 kts | 282° |
| 2026-04-27 11:33 | 12.19045 | -68.97566 | 43 ft | 10 kts | 282° |
| 2026-04-27 11:34 | 12.19059 | -68.97627 | 42 ft | 4 kts | 287° |
| 2026-04-27 11:34 | 12.19071 | -68.97641 | 40 ft | 3 kts | 320° |
| 2026-04-27 11:34 | 12.19098 | -68.97642 | 44 ft | 8 kts | 6° |
| 2026-04-27 11:34 | 12.19165 | -68.97628 | 43 ft | 10 kts | 14° |
| 2026-04-27 11:35 | 12.19185 | -68.97611 | 40 ft | 3 kts | 57° |
| 2026-04-27 11:35 | 12.19199 | -68.97576 | 42 ft | 6 kts | 71° |
| 2026-04-27 11:35 | 12.19211 | -68.97534 | 45 ft | 8 kts | 78° |
| 2026-04-27 11:35 | 12.19209 | -68.97496 | 43 ft | 0 kts | 102° |
| 2026-04-27 11:36 | 12.19208 | -68.97491 | 43 ft | 5 kts | 102° |
| 2026-04-27 11:37 | 12.19135 | -68.97151 | 43 ft | 97 kts | 103° |
| 2026-04-27 11:37 | 12.18932 | -68.96198 | 54 ft | 178 kts | 102° |
| 2026-04-27 11:37 | 12.18645 | -68.94818 | 385 ft | 209 kts | 102° |
| 2026-04-27 11:37 | 12.18367 | -68.93361 | 1220 ft | 203 kts | 100° |
| 2026-04-27 11:38 | 12.18067 | -68.91940 | 1785 ft | 212 kts | 103° |
| 2026-04-27 11:38 | 12.17715 | -68.90405 | 2144 ft | 226 kts | 103° |
| 2026-04-27 11:38 | 12.17555 | -68.88799 | 2765 ft | 232 kts | 82° |
| 2026-04-27 11:38 | 12.18141 | -68.87201 | 3154 ft | 255 kts | 55° |
| 2026-04-27 11:39 | 12.19554 | -68.86044 | 3969 ft | 265 kts | 26° |
| 2026-04-27 11:39 | 12.21305 | -68.85421 | 5084 ft | 270 kts | 19° |
| 2026-04-27 11:39 | 12.23107 | -68.84890 | 6156 ft | 276 kts | 19° |
| 2026-04-27 11:39 | 12.24969 | -68.84341 | 7146 ft | 280 kts | 19° |
| 2026-04-27 11:40 | 12.26867 | -68.83755 | 8121 ft | 286 kts | 19° |
| 2026-04-27 11:40 | 12.28785 | -68.83160 | 9125 ft | 291 kts | 19° |
| 2026-04-27 11:40 | 12.30741 | -68.82560 | 10087 ft | 297 kts | 19° |
| 2026-04-27 11:40 | 12.32779 | -68.81935 | 10610 ft | 319 kts | 19° |
| 2026-04-27 11:41 | 12.34982 | -68.81256 | 10916 ft | 347 kts | 19° |
| 2026-04-27 11:41 | 12.37390 | -68.80517 | 11396 ft | 365 kts | 18° |
| 2026-04-27 11:41 | 12.39794 | -68.79782 | 12382 ft | 368 kts | 18° |
| 2026-04-27 11:41 | 12.42303 | -68.79012 | 12982 ft | 381 kts | 18° |
| 2026-04-27 11:42 | 12.44851 | -68.78227 | 13013 ft | 382 kts | 18° |
| 2026-04-27 11:42 | 12.47366 | -68.77456 | 13742 ft | 377 kts | 18° |
| 2026-04-27 11:42 | 12.49926 | -68.76669 | 14550 ft | 384 kts | 18° |
| 2026-04-27 11:42 | 12.52500 | -68.75877 | 15324 ft | 389 kts | 18° |
| 2026-04-27 11:43 | 12.55130 | -68.75069 | 16078 ft | 395 kts | 18° |
| 2026-04-27 11:43 | 12.57782 | -68.74253 | 16814 ft | 401 kts | 18° |
| 2026-04-27 11:43 | 12.60473 | -68.73425 | 17551 ft | 406 kts | 17° |
| 2026-04-27 11:43 | 12.63198 | -68.72586 | 18275 ft | 411 kts | 17° |
| 2026-04-27 11:44 | 12.65940 | -68.71736 | 18905 ft | 415 kts | 19° |
| 2026-04-27 11:44 | 12.68663 | -68.70693 | 19524 ft | 420 kts | 21° |
| 2026-04-27 11:44 | 12.71429 | -68.69660 | 20165 ft | 423 kts | 20° |
| 2026-04-27 11:44 | 12.74205 | -68.68635 | 20777 ft | 428 kts | 20° |
| 2026-04-27 11:45 | 12.76988 | -68.67579 | 21382 ft | 432 kts | 20° |
| 2026-04-27 11:45 | 12.78897 | -68.66846 | 21793 ft | 435 kts | 20° |
| 2026-04-27 11:45 | 12.82662 | -68.65418 | 22553 ft | 440 kts | 20° |
| 2026-04-27 11:45 | 12.85576 | -68.64322 | 23134 ft | 444 kts | 20° |
| 2026-04-27 11:46 | 12.88488 | -68.63221 | 23674 ft | 448 kts | 20° |
| 2026-04-27 11:46 | 12.91414 | -68.62109 | 24140 ft | 452 kts | 20° |
| 2026-04-27 11:46 | 12.94367 | -68.60988 | 24622 ft | 455 kts | 19° |
| 2026-04-27 11:46 | 12.97346 | -68.59862 | 25070 ft | 458 kts | 20° |
| 2026-04-27 11:47 | 13.00369 | -68.58717 | 25524 ft | 462 kts | 19° |
| 2026-04-27 11:47 | 13.03374 | -68.57577 | 25970 ft | 465 kts | 19° |
| 2026-04-27 11:47 | 13.06394 | -68.56431 | 26405 ft | 468 kts | 19° |
| 2026-04-27 11:47 | 13.09502 | -68.55252 | 26812 ft | 471 kts | 19° |
| 2026-04-27 11:48 | 13.12581 | -68.54085 | 27225 ft | 474 kts | 19° |
| 2026-04-27 11:48 | 13.15657 | -68.52917 | 27608 ft | 477 kts | 19° |
| 2026-04-27 11:48 | 13.18782 | -68.51730 | 27996 ft | 480 kts | 19° |
| 2026-04-27 11:48 | 13.21931 | -68.50535 | 28367 ft | 484 kts | 19° |
| 2026-04-27 11:49 | 13.25106 | -68.49329 | 28768 ft | 486 kts | 19° |
| 2026-04-27 11:49 | 13.28285 | -68.48121 | 29138 ft | 489 kts | 19° |
| 2026-04-27 11:49 | 13.31491 | -68.46902 | 29525 ft | 493 kts | 19° |
| 2026-04-27 11:49 | 13.34717 | -68.45676 | 29919 ft | 495 kts | 19° |
| 2026-04-27 11:50 | 13.37952 | -68.44446 | 30241 ft | 498 kts | 19° |
| 2026-04-27 11:50 | 13.41231 | -68.43198 | 30548 ft | 501 kts | 19° |
| 2026-04-27 11:50 | 13.44508 | -68.41952 | 30858 ft | 504 kts | 19° |
| 2026-04-27 11:50 | 13.47763 | -68.40713 | 31138 ft | 507 kts | 19° |
| 2026-04-27 11:51 | 13.51079 | -68.39450 | 31426 ft | 509 kts | 19° |
| 2026-04-27 11:51 | 13.54411 | -68.38181 | 31698 ft | 512 kts | 19° |
| 2026-04-27 11:51 | 13.61119 | -68.35626 | 32253 ft | 518 kts | 20° |
| 2026-04-27 11:52 | 13.64515 | -68.34331 | 32514 ft | 520 kts | 20° |
| 2026-04-27 11:52 | 13.67925 | -68.33031 | 32762 ft | 523 kts | 20° |
| 2026-04-27 11:52 | 13.71348 | -68.31726 | 32993 ft | 526 kts | 20° |
| 2026-04-27 11:52 | 13.74800 | -68.30409 | 33236 ft | 528 kts | 20° |
| 2026-04-27 11:53 | 13.78237 | -68.29097 | 33465 ft | 531 kts | 20° |
| 2026-04-27 11:53 | 13.81724 | -68.27766 | 33694 ft | 533 kts | 20° |
| 2026-04-27 11:53 | 13.85200 | -68.26438 | 33908 ft | 535 kts | 20° |
| 2026-04-27 11:53 | 13.88698 | -68.25102 | 34205 ft | 535 kts | 20° |
| 2026-04-27 11:54 | 13.92159 | -68.23780 | 34494 ft | 535 kts | 20° |
| 2026-04-27 11:54 | 13.95636 | -68.22450 | 34809 ft | 535 kts | 20° |
| 2026-04-27 11:54 | 13.99166 | -68.21100 | 34987 ft | 537 kts | 19° |
| 2026-04-27 11:55 | 14.06130 | -68.18436 | 34987 ft | 535 kts | 19° |
| 2026-04-27 11:55 | 14.13093 | -68.15771 | 34989 ft | 534 kts | 19° |
| 2026-04-27 11:56 | 14.20091 | -68.13090 | 34993 ft | 534 kts | 19° |
| 2026-04-27 11:56 | 14.27027 | -68.10431 | 34995 ft | 534 kts | 19° |
| 2026-04-27 11:57 | 14.33981 | -68.07764 | 34994 ft | 534 kts | 19° |
| 2026-04-27 11:57 | 14.40988 | -68.05074 | 34997 ft | 534 kts | 19° |
| 2026-04-27 11:58 | 14.47924 | -68.02411 | 34998 ft | 534 kts | 19° |
| 2026-04-27 11:58 | 14.54921 | -67.99722 | 35002 ft | 535 kts | 19° |
| 2026-04-27 11:59 | 14.61899 | -67.97037 | 35003 ft | 536 kts | 19° |
| 2026-04-27 11:59 | 14.68899 | -67.94344 | 35003 ft | 536 kts | 19° |
| 2026-04-27 12:00 | 14.75850 | -67.91667 | 35007 ft | 536 kts | 19° |
| 2026-04-27 12:00 | 14.82844 | -67.88971 | 35003 ft | 535 kts | 19° |
| 2026-04-27 12:01 | 14.89804 | -67.86287 | 35004 ft | 535 kts | 19° |
| 2026-04-27 12:01 | 14.96778 | -67.83596 | 35005 ft | 535 kts | 19° |
| 2026-04-27 12:02 | 15.03774 | -67.80894 | 35013 ft | 535 kts | 19° |
| 2026-04-27 12:02 | 15.10744 | -67.78200 | 35016 ft | 535 kts | 19° |
| 2026-04-27 12:03 | 15.17729 | -67.75499 | 35015 ft | 536 kts | 19° |
| 2026-04-27 12:03 | 15.24674 | -67.72811 | 35015 ft | 536 kts | 19° |
| 2026-04-27 12:04 | 15.31676 | -67.70099 | 35022 ft | 537 kts | 19° |
| 2026-04-27 12:04 | 15.38694 | -67.67379 | 35025 ft | 538 kts | 19° |
| 2026-04-27 12:05 | 15.45703 | -67.64661 | 35024 ft | 538 kts | 19° |
| 2026-04-27 12:05 | 15.52723 | -67.61936 | 35025 ft | 538 kts | 19° |
| 2026-04-27 12:06 | 15.59701 | -67.59226 | 35026 ft | 539 kts | 19° |
| 2026-04-27 12:06 | 15.66721 | -67.56497 | 35030 ft | 539 kts | 18° |
| 2026-04-27 12:07 | 15.73758 | -67.53760 | 35028 ft | 539 kts | 18° |
| 2026-04-27 12:07 | 15.80763 | -67.50964 | 35033 ft | 540 kts | 25° |
| 2026-04-27 12:07 | 15.84023 | -67.48978 | 35049 ft | 542 kts | 36° |
| 2026-04-27 12:08 | 15.86854 | -67.46451 | 35049 ft | 544 kts | 44° |
| 2026-04-27 12:08 | 15.92229 | -67.40916 | 35030 ft | 544 kts | 45° |
| 2026-04-27 12:09 | 15.96733 | -67.36253 | 35027 ft | 544 kts | 44° |
| 2026-04-27 12:09 | 16.02079 | -67.30745 | 35027 ft | 545 kts | 44° |
| 2026-04-27 12:10 | 16.07458 | -67.25172 | 35031 ft | 544 kts | 44° |
| 2026-04-27 12:10 | 16.12831 | -67.19619 | 35027 ft | 544 kts | 44° |
| 2026-04-27 12:11 | 16.18162 | -67.14094 | 35033 ft | 544 kts | 44° |
| 2026-04-27 12:11 | 16.23521 | -67.08543 | 35030 ft | 543 kts | 44° |
| 2026-04-27 12:12 | 16.28870 | -67.02993 | 35035 ft | 544 kts | 44° |
| 2026-04-27 12:12 | 16.34242 | -66.97416 | 35032 ft | 544 kts | 44° |
| 2026-04-27 12:13 | 16.39596 | -66.91853 | 35033 ft | 544 kts | 44° |
| 2026-04-27 12:13 | 16.44936 | -66.86301 | 35032 ft | 544 kts | 44° |
| 2026-04-27 12:14 | 16.50277 | -66.80742 | 35036 ft | 544 kts | 44° |
| 2026-04-27 12:14 | 16.55661 | -66.75135 | 35034 ft | 544 kts | 44° |
| 2026-04-27 12:15 | 16.60976 | -66.69594 | 35040 ft | 544 kts | 44° |
| 2026-04-27 12:15 | 16.66331 | -66.64007 | 35041 ft | 545 kts | 44° |
| 2026-04-27 12:16 | 16.71693 | -66.58408 | 35043 ft | 544 kts | 44° |
| 2026-04-27 12:16 | 16.77040 | -66.52820 | 35043 ft | 544 kts | 44° |
| 2026-04-27 12:17 | 16.82396 | -66.47218 | 35045 ft | 545 kts | 44° |
| 2026-04-27 12:17 | 16.87747 | -66.41617 | 35047 ft | 545 kts | 44° |
| 2026-04-27 12:18 | 16.93105 | -66.36003 | 35046 ft | 546 kts | 44° |
| 2026-04-27 12:18 | 16.98463 | -66.30385 | 35044 ft | 545 kts | 44° |
| 2026-04-27 12:19 | 17.03778 | -66.24806 | 35049 ft | 545 kts | 44° |
| 2026-04-27 12:19 | 17.09124 | -66.19191 | 35055 ft | 545 kts | 44° |
| 2026-04-27 12:20 | 17.14493 | -66.13546 | 35049 ft | 545 kts | 44° |
| 2026-04-27 12:20 | 17.19798 | -66.07964 | 35054 ft | 545 kts | 44° |
| 2026-04-27 12:21 | 17.25146 | -66.02332 | 35052 ft | 545 kts | 44° |
| 2026-04-27 12:21 | 17.30486 | -65.96702 | 35052 ft | 545 kts | 44° |
| 2026-04-27 12:22 | 17.35841 | -65.91054 | 35053 ft | 545 kts | 44° |
| 2026-04-27 12:22 | 17.41166 | -65.85430 | 35051 ft | 545 kts | 44° |
| 2026-04-27 12:23 | 17.46498 | -65.79796 | 35049 ft | 546 kts | 44° |
| 2026-04-27 12:23 | 17.51844 | -65.74140 | 35060 ft | 546 kts | 44° |
| 2026-04-27 12:24 | 17.57204 | -65.68466 | 35054 ft | 546 kts | 44° |
| 2026-04-27 12:24 | 17.62523 | -65.62830 | 35057 ft | 547 kts | 44° |
| 2026-04-27 12:25 | 17.67874 | -65.57154 | 35057 ft | 547 kts | 44° |
| 2026-04-27 12:25 | 17.73245 | -65.51452 | 35054 ft | 547 kts | 44° |
| 2026-04-27 12:26 | 17.78595 | -65.45768 | 35059 ft | 547 kts | 44° |
| 2026-04-27 12:26 | 17.83925 | -65.40099 | 35062 ft | 547 kts | 44° |
| 2026-04-27 12:27 | 17.89276 | -65.34403 | 35060 ft | 547 kts | 44° |
| 2026-04-27 12:27 | 17.94598 | -65.28733 | 35063 ft | 548 kts | 44° |
| 2026-04-27 12:28 | 17.99930 | -65.23046 | 35054 ft | 547 kts | 44° |
| 2026-04-27 12:28 | 18.05275 | -65.17342 | 35063 ft | 547 kts | 44° |
| 2026-04-27 12:29 | 18.10632 | -65.11618 | 35061 ft | 547 kts | 44° |
| 2026-04-27 12:29 | 18.15975 | -65.05905 | 35060 ft | 548 kts | 44° |
| 2026-04-27 12:30 | 18.21283 | -65.00223 | 35052 ft | 548 kts | 44° |
| 2026-04-27 12:30 | 18.26629 | -64.94495 | 35053 ft | 548 kts | 44° |
| 2026-04-27 12:31 | 18.31968 | -64.88770 | 35068 ft | 548 kts | 44° |
| 2026-04-27 12:31 | 18.37315 | -64.83032 | 35052 ft | 548 kts | 44° |
| 2026-04-27 12:32 | 18.42651 | -64.77299 | 35050 ft | 548 kts | 44° |
| 2026-04-27 12:32 | 18.47980 | -64.71568 | 35059 ft | 548 kts | 44° |
| 2026-04-27 12:33 | 18.53283 | -64.65860 | 35063 ft | 548 kts | 44° |
| 2026-04-27 12:33 | 18.58609 | -64.60121 | 35066 ft | 548 kts | 44° |
| 2026-04-27 12:34 | 18.63948 | -64.54364 | 35063 ft | 549 kts | 44° |
| 2026-04-27 12:34 | 18.69277 | -64.48611 | 35063 ft | 549 kts | 44° |
| 2026-04-27 12:35 | 18.74599 | -64.42861 | 35063 ft | 549 kts | 44° |
| 2026-04-27 12:35 | 18.79958 | -64.37064 | 35064 ft | 549 kts | 44° |
| 2026-04-27 12:36 | 18.85271 | -64.31313 | 35066 ft | 550 kts | 44° |
| 2026-04-27 12:36 | 18.90617 | -64.25520 | 35071 ft | 550 kts | 44° |
| 2026-04-27 12:37 | 18.95955 | -64.19730 | 35070 ft | 551 kts | 44° |
| 2026-04-27 12:37 | 19.01302 | -64.13924 | 35078 ft | 551 kts | 44° |
| 2026-04-27 12:38 | 19.06624 | -64.08140 | 35177 ft | 552 kts | 44° |
| 2026-04-27 12:38 | 19.09305 | -64.05224 | 35554 ft | 551 kts | 44° |
| 2026-04-27 12:38 | 19.11979 | -64.02315 | 35841 ft | 551 kts | 44° |
| 2026-04-27 12:38 | 19.14641 | -63.99416 | 36129 ft | 551 kts | 44° |
| 2026-04-27 12:39 | 19.17306 | -63.96513 | 36391 ft | 551 kts | 44° |
| 2026-04-27 12:39 | 19.19992 | -63.93586 | 36657 ft | 551 kts | 44° |
| 2026-04-27 12:39 | 19.22658 | -63.90680 | 36923 ft | 551 kts | 44° |
| 2026-04-27 12:39 | 19.25331 | -63.87764 | 37172 ft | 551 kts | 44° |
| 2026-04-27 12:40 | 19.27998 | -63.84854 | 37396 ft | 551 kts | 44° |
| 2026-04-27 12:40 | 19.30664 | -63.81942 | 37626 ft | 551 kts | 44° |
| 2026-04-27 12:40 | 19.33328 | -63.79032 | 37843 ft | 551 kts | 44° |
| 2026-04-27 12:40 | 19.35958 | -63.76157 | 38041 ft | 551 kts | 44° |
| 2026-04-27 12:41 | 19.38615 | -63.73252 | 38240 ft | 551 kts | 44° |
| 2026-04-27 12:41 | 19.41299 | -63.70315 | 38431 ft | 551 kts | 44° |
| 2026-04-27 12:41 | 19.43951 | -63.67411 | 38618 ft | 551 kts | 44° |
| 2026-04-27 12:41 | 19.46620 | -63.64488 | 38784 ft | 551 kts | 44° |
| 2026-04-27 12:42 | 19.49298 | -63.61555 | 38946 ft | 551 kts | 44° |
| 2026-04-27 12:42 | 19.51962 | -63.58635 | 39078 ft | 551 kts | 44° |
| 2026-04-27 12:42 | 19.54599 | -63.55742 | 39069 ft | 552 kts | 44° |
| 2026-04-27 12:43 | 19.59932 | -63.49887 | 39068 ft | 550 kts | 44° |
| 2026-04-27 12:43 | 19.65239 | -63.44056 | 39062 ft | 549 kts | 44° |
| 2026-04-27 12:44 | 19.70565 | -63.38197 | 39067 ft | 549 kts | 44° |
| 2026-04-27 12:44 | 19.75848 | -63.32381 | 39075 ft | 550 kts | 44° |
| 2026-04-27 12:45 | 19.81150 | -63.26537 | 39064 ft | 550 kts | 44° |
| 2026-04-27 12:45 | 19.86429 | -63.20712 | 39077 ft | 549 kts | 44° |
| 2026-04-27 12:46 | 19.91762 | -63.14822 | 39078 ft | 549 kts | 44° |
| 2026-04-27 12:46 | 19.97031 | -63.08996 | 39079 ft | 549 kts | 44° |
| 2026-04-27 12:47 | 20.02328 | -63.03134 | 39077 ft | 550 kts | 44° |
| 2026-04-27 12:47 | 20.07631 | -62.97259 | 39089 ft | 550 kts | 44° |
| 2026-04-27 12:48 | 20.12900 | -62.91415 | 39091 ft | 550 kts | 44° |
| 2026-04-27 12:48 | 20.18222 | -62.85507 | 39092 ft | 550 kts | 44° |
| 2026-04-27 12:49 | 20.23426 | -62.79722 | 39097 ft | 551 kts | 44° |
| 2026-04-27 12:49 | 20.28724 | -62.73828 | 39093 ft | 551 kts | 44° |
| 2026-04-27 12:50 | 20.34009 | -62.67943 | 39085 ft | 551 kts | 44° |
| 2026-04-27 12:50 | 20.39309 | -62.62034 | 39086 ft | 551 kts | 44° |
| 2026-04-27 12:51 | 20.44626 | -62.56100 | 39091 ft | 552 kts | 44° |
| 2026-04-27 12:51 | 20.49919 | -62.50186 | 39092 ft | 551 kts | 44° |
| 2026-04-27 12:52 | 20.55265 | -62.44397 | 39125 ft | 549 kts | 39° |
| 2026-04-27 12:52 | 20.60934 | -62.38882 | 39095 ft | 550 kts | 39° |
| 2026-04-27 12:53 | 20.69402 | -62.30603 | 39103 ft | 550 kts | 39° |
| 2026-04-27 12:53 | 20.75027 | -62.25103 | 39097 ft | 551 kts | 39° |
| 2026-04-27 12:54 | 20.80678 | -62.19568 | 39102 ft | 551 kts | 39° |
| 2026-04-27 12:54 | 20.86333 | -62.14027 | 39108 ft | 551 kts | 39° |
| 2026-04-27 12:55 | 20.91980 | -62.08484 | 39111 ft | 552 kts | 39° |
| 2026-04-27 12:55 | 20.97640 | -62.02926 | 39110 ft | 552 kts | 39° |
| 2026-04-27 12:56 | 21.03290 | -61.97369 | 39105 ft | 551 kts | 39° |
| 2026-04-27 12:56 | 21.07994 | -61.92739 | 39107 ft | 551 kts | 39° |
| 2026-04-27 12:57 | 21.13647 | -61.87169 | 39112 ft | 551 kts | 39° |
| 2026-04-27 12:57 | 21.19288 | -61.81604 | 39110 ft | 551 kts | 39° |
| 2026-04-27 12:58 | 21.24901 | -61.76062 | 39115 ft | 552 kts | 39° |
| 2026-04-27 12:58 | 21.30559 | -61.70469 | 39112 ft | 552 kts | 39° |
| 2026-04-27 12:59 | 21.36204 | -61.64882 | 39111 ft | 553 kts | 39° |
| 2026-04-27 12:59 | 21.41862 | -61.59278 | 39119 ft | 553 kts | 39° |
| 2026-04-27 13:00 | 21.47489 | -61.53697 | 39121 ft | 554 kts | 39° |
| 2026-04-27 13:00 | 21.53150 | -61.48076 | 39116 ft | 553 kts | 39° |
| 2026-04-27 13:01 | 21.58803 | -61.42457 | 39116 ft | 553 kts | 39° |
| 2026-04-27 13:01 | 21.64428 | -61.36860 | 39122 ft | 553 kts | 39° |
| 2026-04-27 13:02 | 21.70077 | -61.31233 | 39124 ft | 553 kts | 39° |
| 2026-04-27 13:02 | 21.75710 | -61.25614 | 39120 ft | 553 kts | 39° |
| 2026-04-27 13:03 | 21.81360 | -61.19973 | 39113 ft | 554 kts | 39° |
| 2026-04-27 13:03 | 21.86999 | -61.14337 | 39117 ft | 555 kts | 39° |
| 2026-04-27 13:04 | 21.92655 | -61.08677 | 39127 ft | 555 kts | 39° |
| 2026-04-27 13:04 | 21.98319 | -61.03002 | 39119 ft | 556 kts | 39° |
| 2026-04-27 13:05 | 22.03991 | -60.97313 | 39121 ft | 556 kts | 39° |
| 2026-04-27 13:05 | 22.09625 | -60.91656 | 39124 ft | 556 kts | 39° |
| 2026-04-27 13:06 | 22.15319 | -60.85933 | 39122 ft | 556 kts | 39° |
| 2026-04-27 13:06 | 22.20952 | -60.80262 | 39124 ft | 557 kts | 39° |
| 2026-04-27 13:07 | 22.26615 | -60.74557 | 39122 ft | 557 kts | 39° |
| 2026-04-27 13:07 | 22.32275 | -60.68846 | 39120 ft | 557 kts | 39° |
| 2026-04-27 13:08 | 22.37960 | -60.63105 | 39120 ft | 558 kts | 39° |
| 2026-04-27 13:08 | 22.43599 | -60.57404 | 39122 ft | 558 kts | 39° |
| 2026-04-27 13:09 | 22.49290 | -60.51642 | 39124 ft | 558 kts | 39° |
| 2026-04-27 13:09 | 22.54955 | -60.45900 | 39124 ft | 558 kts | 39° |
| 2026-04-27 13:10 | 22.60595 | -60.40178 | 39122 ft | 559 kts | 39° |
| 2026-04-27 13:10 | 22.66275 | -60.34407 | 39125 ft | 559 kts | 39° |
| 2026-04-27 13:11 | 22.71952 | -60.28632 | 39130 ft | 559 kts | 39° |
| 2026-04-27 13:11 | 22.77590 | -60.22892 | 39121 ft | 559 kts | 39° |
| 2026-04-27 13:12 | 22.83285 | -60.17085 | 39122 ft | 559 kts | 39° |
| 2026-04-27 13:12 | 22.88957 | -60.11295 | 39126 ft | 559 kts | 39° |
| 2026-04-27 13:13 | 22.94588 | -60.05540 | 39125 ft | 559 kts | 39° |
| 2026-04-27 13:13 | 23.00224 | -59.99733 | 39132 ft | 561 kts | 44° |
| 2026-04-27 13:14 | 23.05515 | -59.93448 | 39123 ft | 563 kts | 44° |
| 2026-04-27 13:14 | 23.10797 | -59.87173 | 39125 ft | 564 kts | 43° |
| 2026-04-27 13:15 | 23.16095 | -59.80864 | 39126 ft | 565 kts | 44° |
| 2026-04-27 13:15 | 23.21388 | -59.74552 | 39130 ft | 565 kts | 43° |
| 2026-04-27 13:16 | 23.26686 | -59.68231 | 39129 ft | 565 kts | 44° |
| 2026-04-27 13:16 | 23.31953 | -59.61932 | 39131 ft | 565 kts | 43° |
| 2026-04-27 13:17 | 23.37267 | -59.55576 | 39131 ft | 565 kts | 43° |
| 2026-04-27 13:17 | 23.42531 | -59.49267 | 39127 ft | 566 kts | 43° |
| 2026-04-27 13:18 | 23.47805 | -59.42940 | 39124 ft | 566 kts | 43° |
| 2026-04-27 13:18 | 23.53097 | -59.36582 | 39133 ft | 567 kts | 43° |
| 2026-04-27 13:19 | 23.58397 | -59.30208 | 39129 ft | 566 kts | 43° |
| 2026-04-27 13:19 | 23.63668 | -59.23859 | 39132 ft | 566 kts | 43° |
| 2026-04-27 13:20 | 23.68953 | -59.17485 | 39134 ft | 566 kts | 43° |
| 2026-04-27 13:20 | 23.74225 | -59.11119 | 39135 ft | 566 kts | 43° |
| 2026-04-27 13:21 | 23.79509 | -59.04730 | 39137 ft | 566 kts | 43° |
| 2026-04-27 13:21 | 23.84783 | -58.98344 | 39121 ft | 567 kts | 43° |
| 2026-04-27 13:22 | 23.90072 | -58.91932 | 39128 ft | 567 kts | 43° |
| 2026-04-27 13:22 | 23.95356 | -58.85517 | 39131 ft | 568 kts | 43° |
| 2026-04-27 13:23 | 24.00650 | -58.79082 | 39135 ft | 568 kts | 43° |
| 2026-04-27 13:23 | 24.05902 | -58.72689 | 39139 ft | 568 kts | 43° |
| 2026-04-27 13:24 | 24.11208 | -58.66223 | 39136 ft | 569 kts | 43° |
| 2026-04-27 13:24 | 24.16509 | -58.59754 | 39141 ft | 570 kts | 43° |
| 2026-04-27 13:25 | 24.21799 | -58.53288 | 39142 ft | 570 kts | 43° |
| 2026-04-27 13:25 | 24.27076 | -58.46832 | 39141 ft | 570 kts | 43° |
| 2026-04-27 13:26 | 24.32350 | -58.40368 | 39148 ft | 570 kts | 43° |
| 2026-04-27 13:26 | 24.37654 | -58.33862 | 39144 ft | 571 kts | 43° |
| 2026-04-27 13:27 | 24.42935 | -58.27372 | 39143 ft | 572 kts | 42° |
| 2026-04-27 13:27 | 24.48235 | -58.20852 | 39152 ft | 572 kts | 42° |
| 2026-04-27 13:28 | 24.53538 | -58.14318 | 39151 ft | 572 kts | 42° |
| 2026-04-27 13:28 | 24.58821 | -58.07801 | 39151 ft | 573 kts | 42° |
| 2026-04-27 13:29 | 24.64103 | -58.01275 | 39149 ft | 573 kts | 42° |
| 2026-04-27 13:29 | 24.69410 | -57.94709 | 39150 ft | 574 kts | 42° |
| 2026-04-27 13:30 | 24.74712 | -57.88141 | 39154 ft | 574 kts | 42° |
| 2026-04-27 13:30 | 24.80027 | -57.81546 | 39158 ft | 574 kts | 42° |
| 2026-04-27 13:31 | 24.85290 | -57.75008 | 39161 ft | 575 kts | 42° |
| 2026-04-27 13:31 | 24.90628 | -57.68368 | 39161 ft | 575 kts | 42° |
| 2026-04-27 13:32 | 24.95921 | -57.61773 | 39153 ft | 575 kts | 42° |
| 2026-04-27 13:32 | 25.01183 | -57.55208 | 39160 ft | 575 kts | 42° |
| 2026-04-27 13:33 | 25.06494 | -57.48573 | 39164 ft | 575 kts | 42° |
| 2026-04-27 13:33 | 25.11787 | -57.41950 | 39166 ft | 575 kts | 42° |
| 2026-04-27 13:34 | 25.17035 | -57.35376 | 39168 ft | 575 kts | 42° |
| 2026-04-27 13:34 | 25.22319 | -57.28746 | 39170 ft | 575 kts | 42° |
| 2026-04-27 13:35 | 25.27611 | -57.22097 | 39175 ft | 575 kts | 42° |
| 2026-04-27 13:35 | 25.32885 | -57.15460 | 39174 ft | 576 kts | 42° |
| 2026-04-27 13:36 | 25.38184 | -57.08783 | 39175 ft | 576 kts | 42° |
| 2026-04-27 13:36 | 25.43440 | -57.02151 | 39174 ft | 576 kts | 42° |
| 2026-04-27 13:37 | 25.48712 | -56.95488 | 39178 ft | 576 kts | 42° |
| 2026-04-27 13:37 | 25.53984 | -56.88816 | 39180 ft | 576 kts | 42° |
| 2026-04-27 13:38 | 25.59264 | -56.82125 | 39181 ft | 576 kts | 42° |
| 2026-04-27 13:38 | 25.64532 | -56.75438 | 39191 ft | 576 kts | 42° |
| 2026-04-27 13:39 | 25.69795 | -56.68748 | 39185 ft | 576 kts | 42° |
| 2026-04-27 13:39 | 25.75037 | -56.62075 | 39195 ft | 576 kts | 42° |
| 2026-04-27 13:40 | 25.80297 | -56.55370 | 39193 ft | 577 kts | 42° |
| 2026-04-27 13:40 | 25.85583 | -56.48620 | 39194 ft | 578 kts | 42° |
| 2026-04-27 13:41 | 25.90853 | -56.41883 | 39194 ft | 577 kts | 42° |
| 2026-04-27 13:41 | 25.96094 | -56.35171 | 39194 ft | 578 kts | 42° |
| 2026-04-27 13:42 | 26.01360 | -56.28418 | 39198 ft | 578 kts | 42° |
| 2026-04-27 13:42 | 26.06621 | -56.21662 | 39203 ft | 578 kts | 42° |
| 2026-04-27 13:43 | 26.11864 | -56.14918 | 39204 ft | 578 kts | 42° |
| 2026-04-27 13:43 | 26.17121 | -56.08145 | 39201 ft | 577 kts | 42° |
| 2026-04-27 13:44 | 26.22389 | -56.01350 | 39209 ft | 576 kts | 42° |
| 2026-04-27 13:44 | 26.27596 | -55.94622 | 39208 ft | 576 kts | 42° |
| 2026-04-27 13:45 | 26.32837 | -55.87840 | 39206 ft | 577 kts | 42° |
| 2026-04-27 13:45 | 26.37197 | -55.82190 | 39210 ft | 577 kts | 42° |
| 2026-04-27 13:46 | 26.42420 | -55.75412 | 39214 ft | 576 kts | 42° |
| 2026-04-27 13:46 | 26.47626 | -55.68647 | 39214 ft | 577 kts | 42° |
| 2026-04-27 13:47 | 26.52877 | -55.61813 | 39210 ft | 577 kts | 42° |
| 2026-04-27 13:47 | 26.58076 | -55.55036 | 39221 ft | 577 kts | 42° |
| 2026-04-27 13:48 | 26.63305 | -55.48208 | 39216 ft | 577 kts | 42° |
| 2026-04-27 13:48 | 26.68522 | -55.41387 | 39218 ft | 577 kts | 42° |
| 2026-04-27 13:49 | 26.73724 | -55.34574 | 39220 ft | 577 kts | 42° |
| 2026-04-27 13:49 | 26.78945 | -55.27726 | 39216 ft | 577 kts | 42° |
| 2026-04-27 13:50 | 26.84144 | -55.20897 | 39216 ft | 576 kts | 42° |
| 2026-04-27 13:50 | 26.89307 | -55.14105 | 39223 ft | 576 kts | 42° |
| 2026-04-27 13:51 | 26.94504 | -55.07257 | 39207 ft | 576 kts | 42° |
| 2026-04-27 13:51 | 26.99696 | -55.00409 | 39208 ft | 574 kts | 40° |
| 2026-04-27 13:52 | 27.05154 | -54.93941 | 39211 ft | 571 kts | 38° |
| 2026-04-27 13:52 | 27.10588 | -54.87517 | 39218 ft | 570 kts | 38° |
| 2026-04-27 13:53 | 27.18804 | -54.77814 | 39226 ft | 569 kts | 38° |
| 2026-04-27 13:54 | 27.24241 | -54.71373 | 39221 ft | 568 kts | 38° |
| 2026-04-27 13:54 | 27.29678 | -54.64929 | 39229 ft | 567 kts | 38° |
| 2026-04-27 13:55 | 27.35109 | -54.58477 | 39228 ft | 566 kts | 38° |
| 2026-04-27 13:55 | 27.40473 | -54.52098 | 39229 ft | 565 kts | 38° |
| 2026-04-27 13:56 | 27.45864 | -54.45673 | 39233 ft | 563 kts | 38° |
| 2026-04-27 13:56 | 27.51259 | -54.39239 | 39234 ft | 563 kts | 38° |
| 2026-04-27 13:57 | 27.56638 | -54.32810 | 39236 ft | 563 kts | 39° |
| 2026-04-27 13:57 | 27.62006 | -54.26387 | 39236 ft | 562 kts | 39° |
| 2026-04-27 13:58 | 27.67376 | -54.19951 | 39236 ft | 562 kts | 39° |
| 2026-04-27 13:58 | 27.72715 | -54.13542 | 39234 ft | 563 kts | 39° |
| 2026-04-27 13:59 | 27.78081 | -54.07090 | 39233 ft | 562 kts | 39° |
| 2026-04-27 13:59 | 27.83436 | -54.00642 | 39235 ft | 561 kts | 39° |
| 2026-04-27 14:00 | 27.88772 | -53.94208 | 39240 ft | 561 kts | 39° |
| 2026-04-27 14:00 | 27.94108 | -53.87763 | 39238 ft | 562 kts | 39° |
| 2026-04-27 14:01 | 27.99419 | -53.81339 | 39242 ft | 563 kts | 39° |
| 2026-04-27 14:01 | 28.04775 | -53.74849 | 39244 ft | 564 kts | 39° |
| 2026-04-27 14:02 | 28.10135 | -53.68344 | 39240 ft | 563 kts | 39° |
| 2026-04-27 14:02 | 28.15484 | -53.61844 | 39243 ft | 563 kts | 39° |
| 2026-04-27 14:03 | 28.20792 | -53.55382 | 39241 ft | 563 kts | 39° |
| 2026-04-27 14:03 | 28.26125 | -53.48879 | 39248 ft | 563 kts | 39° |
| 2026-04-27 14:04 | 28.31474 | -53.42348 | 39235 ft | 563 kts | 39° |
| 2026-04-27 14:04 | 28.36788 | -53.35849 | 39242 ft | 563 kts | 39° |
| 2026-04-27 14:05 | 28.42119 | -53.29317 | 39243 ft | 563 kts | 39° |
| 2026-04-27 14:05 | 28.47421 | -53.22811 | 39245 ft | 562 kts | 39° |
| 2026-04-27 14:06 | 28.52732 | -53.16286 | 39240 ft | 561 kts | 39° |
| 2026-04-27 14:06 | 28.57998 | -53.09803 | 39251 ft | 560 kts | 39° |
| 2026-04-27 14:07 | 28.63278 | -53.03294 | 39248 ft | 560 kts | 39° |
| 2026-04-27 14:07 | 28.68560 | -52.96771 | 39246 ft | 559 kts | 39° |
| 2026-04-27 14:08 | 28.73828 | -52.90257 | 39246 ft | 558 kts | 39° |
| 2026-04-27 14:08 | 28.79085 | -52.83745 | 39251 ft | 558 kts | 39° |
| 2026-04-27 14:09 | 28.84339 | -52.77226 | 39247 ft | 558 kts | 40° |
| 2026-04-27 14:09 | 28.89557 | -52.70741 | 39252 ft | 557 kts | 40° |
| 2026-04-27 14:10 | 28.94786 | -52.64233 | 39251 ft | 555 kts | 40° |
| 2026-04-27 14:10 | 29.00000 | -52.57732 | 39251 ft | 555 kts | 40° |
| 2026-04-27 14:11 | 29.05214 | -52.51221 | 39257 ft | 555 kts | 40° |
| 2026-04-27 14:11 | 29.10406 | -52.44726 | 39250 ft | 554 kts | 40° |
| 2026-04-27 14:12 | 29.15606 | -52.38212 | 39250 ft | 553 kts | 40° |
| 2026-04-27 14:12 | 29.20759 | -52.31747 | 39255 ft | 552 kts | 40° |
| 2026-04-27 14:13 | 29.25932 | -52.25245 | 39252 ft | 552 kts | 40° |
| 2026-04-27 14:13 | 29.31098 | -52.18741 | 39252 ft | 552 kts | 40° |
| 2026-04-27 14:14 | 29.36249 | -52.12247 | 39258 ft | 551 kts | 40° |
| 2026-04-27 14:14 | 29.41416 | -52.05722 | 39256 ft | 551 kts | 40° |
| 2026-04-27 14:15 | 29.46556 | -51.99219 | 39257 ft | 551 kts | 40° |
| 2026-04-27 14:15 | 29.51690 | -51.92714 | 39260 ft | 550 kts | 40° |
| 2026-04-27 14:16 | 29.56833 | -51.86187 | 39260 ft | 550 kts | 40° |
| 2026-04-27 14:16 | 29.61960 | -51.79669 | 39262 ft | 549 kts | 40° |
| 2026-04-27 14:17 | 29.67062 | -51.73174 | 39259 ft | 549 kts | 40° |
| 2026-04-27 14:17 | 29.72173 | -51.66654 | 39256 ft | 548 kts | 40° |
| 2026-04-27 14:18 | 29.77279 | -51.60132 | 39247 ft | 548 kts | 40° |
| 2026-04-27 14:18 | 29.82381 | -51.53603 | 39249 ft | 547 kts | 41° |
| 2026-04-27 14:19 | 29.87442 | -51.47117 | 39258 ft | 547 kts | 41° |
| 2026-04-27 14:19 | 29.92552 | -51.40555 | 39263 ft | 547 kts | 41° |
| 2026-04-27 14:20 | 29.97614 | -51.34046 | 39259 ft | 546 kts | 41° |
| 2026-04-27 14:20 | 30.02690 | -51.27509 | 39265 ft | 546 kts | 41° |
| 2026-04-27 14:21 | 30.07753 | -51.20976 | 39256 ft | 546 kts | 41° |
| 2026-04-27 14:21 | 30.12776 | -51.14484 | 39259 ft | 545 kts | 41° |
| 2026-04-27 14:22 | 30.17820 | -51.07955 | 39263 ft | 544 kts | 41° |
| 2026-04-27 14:22 | 30.22848 | -51.01434 | 39259 ft | 543 kts | 41° |
| 2026-04-27 14:23 | 30.27889 | -50.94888 | 39260 ft | 542 kts | 41° |
| 2026-04-27 14:23 | 30.32909 | -50.88357 | 39256 ft | 542 kts | 42° |
| 2026-04-27 14:24 | 30.37884 | -50.81874 | 39256 ft | 541 kts | 42° |
| 2026-04-27 14:24 | 30.42909 | -50.75315 | 39255 ft | 542 kts | 42° |
| 2026-04-27 14:25 | 30.47885 | -50.68809 | 39261 ft | 541 kts | 42° |
| 2026-04-27 14:25 | 30.52872 | -50.62277 | 39257 ft | 541 kts | 42° |
| 2026-04-27 14:26 | 30.57853 | -50.55743 | 39255 ft | 540 kts | 42° |
| 2026-04-27 14:26 | 30.62835 | -50.49196 | 39255 ft | 540 kts | 42° |
| 2026-04-27 14:27 | 30.67796 | -50.42665 | 39248 ft | 539 kts | 43° |
| 2026-04-27 14:27 | 30.72726 | -50.36164 | 39241 ft | 539 kts | 43° |
| 2026-04-27 14:28 | 30.77672 | -50.29632 | 39245 ft | 538 kts | 43° |
| 2026-04-27 14:28 | 30.82628 | -50.23075 | 39243 ft | 539 kts | 43° |
| 2026-04-27 14:29 | 30.87565 | -50.16531 | 39252 ft | 538 kts | 43° |
| 2026-04-27 14:29 | 30.92502 | -50.09978 | 39251 ft | 537 kts | 43° |
| 2026-04-27 14:30 | 30.97395 | -50.03471 | 39250 ft | 537 kts | 43° |
| 2026-04-27 14:30 | 31.02014 | -49.96484 | 39230 ft | 544 kts | 51° |
| 2026-04-27 14:31 | 31.06158 | -49.89183 | 39253 ft | 543 kts | 51° |
| 2026-04-27 14:31 | 31.10326 | -49.81864 | 39249 ft | 543 kts | 51° |
| 2026-04-27 14:32 | 31.14495 | -49.74505 | 39253 ft | 542 kts | 51° |
| 2026-04-27 14:32 | 31.18662 | -49.67151 | 39247 ft | 543 kts | 51° |
| 2026-04-27 14:33 | 31.22111 | -49.61046 | 39252 ft | 543 kts | 52° |
| 2026-04-27 14:33 | 31.26260 | -49.53693 | 39251 ft | 542 kts | 52° |
| 2026-04-27 14:34 | 31.30434 | -49.46282 | 39254 ft | 543 kts | 52° |
| 2026-04-27 14:34 | 31.34581 | -49.38904 | 39245 ft | 542 kts | 52° |
| 2026-04-27 14:35 | 31.38702 | -49.31558 | 39248 ft | 542 kts | 52° |
| 2026-04-27 14:35 | 31.42836 | -49.24174 | 39244 ft | 543 kts | 52° |
| 2026-04-27 14:36 | 31.46985 | -49.16751 | 39249 ft | 543 kts | 52° |
| 2026-04-27 14:36 | 31.51108 | -49.09361 | 39248 ft | 543 kts | 52° |
| 2026-04-27 14:37 | 31.55237 | -49.01943 | 39245 ft | 543 kts | 52° |
| 2026-04-27 14:37 | 31.59333 | -48.94574 | 39244 ft | 542 kts | 52° |
| 2026-04-27 14:38 | 31.63452 | -48.87146 | 39247 ft | 542 kts | 52° |
| 2026-04-27 14:38 | 31.67555 | -48.79734 | 39243 ft | 542 kts | 52° |
| 2026-04-27 14:39 | 31.71664 | -48.72296 | 39248 ft | 542 kts | 52° |
| 2026-04-27 14:39 | 31.75756 | -48.64875 | 39245 ft | 542 kts | 52° |
| 2026-04-27 14:40 | 31.79855 | -48.57427 | 39239 ft | 541 kts | 52° |
| 2026-04-27 14:40 | 31.83917 | -48.50033 | 39242 ft | 541 kts | 52° |
| 2026-04-27 14:41 | 31.87988 | -48.42607 | 39245 ft | 541 kts | 52° |
| 2026-04-27 14:41 | 31.92079 | -48.35129 | 39237 ft | 542 kts | 52° |
| 2026-04-27 14:42 | 31.96146 | -48.27682 | 39238 ft | 542 kts | 52° |
| 2026-04-27 14:42 | 32.00210 | -48.20225 | 39240 ft | 542 kts | 52° |
| 2026-04-27 14:43 | 32.04277 | -48.12749 | 39236 ft | 542 kts | 52° |
| 2026-04-27 14:43 | 32.08346 | -48.05252 | 39238 ft | 542 kts | 52° |
| 2026-04-27 14:44 | 32.12419 | -47.97735 | 39238 ft | 542 kts | 52° |
| 2026-04-27 14:44 | 32.16452 | -47.90278 | 39237 ft | 543 kts | 52° |
| 2026-04-27 14:45 | 32.20514 | -47.82750 | 39220 ft | 543 kts | 52° |
| 2026-04-27 14:45 | 32.24572 | -47.75215 | 39227 ft | 542 kts | 52° |
| 2026-04-27 14:46 | 32.28613 | -47.67697 | 39236 ft | 543 kts | 52° |
| 2026-04-27 14:46 | 32.32661 | -47.60152 | 39235 ft | 543 kts | 52° |
| 2026-04-27 14:47 | 32.36683 | -47.52639 | 39231 ft | 543 kts | 52° |
| 2026-04-27 14:47 | 32.40717 | -47.45090 | 39232 ft | 542 kts | 53° |
| 2026-04-27 14:48 | 32.44747 | -47.37530 | 39229 ft | 542 kts | 53° |
| 2026-04-27 14:48 | 32.50773 | -47.26201 | 39230 ft | 543 kts | 53° |
| 2026-04-27 14:49 | 32.54803 | -47.18606 | 39227 ft | 543 kts | 53° |
| 2026-04-27 14:49 | 32.58802 | -47.11053 | 39227 ft | 544 kts | 53° |
| 2026-04-27 14:50 | 32.62817 | -47.03454 | 39224 ft | 544 kts | 53° |
| 2026-04-27 14:50 | 32.66838 | -46.95830 | 39222 ft | 545 kts | 53° |
| 2026-04-27 14:51 | 32.70862 | -46.88182 | 39224 ft | 545 kts | 53° |
| 2026-04-27 14:51 | 32.74189 | -46.81848 | 39222 ft | 545 kts | 53° |
| 2026-04-27 14:52 | 32.78883 | -46.72893 | 39217 ft | 546 kts | 53° |
| 2026-04-27 14:52 | 32.82881 | -46.65250 | 39220 ft | 546 kts | 53° |
| 2026-04-27 14:53 | 32.86884 | -46.57578 | 39220 ft | 546 kts | 53° |
| 2026-04-27 14:53 | 32.90889 | -46.49890 | 39215 ft | 546 kts | 53° |
| 2026-04-27 14:54 | 32.94891 | -46.42190 | 39216 ft | 546 kts | 53° |
| 2026-04-27 14:54 | 32.98877 | -46.34504 | 39201 ft | 546 kts | 53° |
| 2026-04-27 14:55 | 33.02862 | -46.26807 | 39204 ft | 547 kts | 53° |
| 2026-04-27 14:55 | 33.06867 | -46.19052 | 39210 ft | 548 kts | 53° |
| 2026-04-27 14:56 | 33.10864 | -46.11296 | 39204 ft | 548 kts | 53° |
| 2026-04-27 14:56 | 33.14825 | -46.03596 | 39204 ft | 549 kts | 53° |
| 2026-04-27 14:57 | 33.18819 | -45.95813 | 39207 ft | 549 kts | 53° |
| 2026-04-27 14:57 | 33.22796 | -45.88049 | 39208 ft | 549 kts | 53° |
| 2026-04-27 14:58 | 33.26781 | -45.80252 | 39203 ft | 549 kts | 53° |
| 2026-04-27 14:58 | 33.30771 | -45.72429 | 39204 ft | 549 kts | 53° |
| 2026-04-27 14:59 | 33.34747 | -45.64615 | 39196 ft | 549 kts | 53° |
| 2026-04-27 14:59 | 33.38708 | -45.56814 | 39195 ft | 549 kts | 53° |
| 2026-04-27 15:00 | 33.42652 | -45.49032 | 39192 ft | 549 kts | 53° |
| 2026-04-27 15:00 | 33.46607 | -45.41210 | 39186 ft | 549 kts | 53° |
| 2026-04-27 15:01 | 33.50559 | -45.33377 | 39194 ft | 550 kts | 53° |
| 2026-04-27 15:01 | 33.54505 | -45.25538 | 39195 ft | 550 kts | 53° |
| 2026-04-27 15:02 | 33.58456 | -45.17673 | 39191 ft | 550 kts | 53° |
| 2026-04-27 15:02 | 33.62397 | -45.09812 | 39184 ft | 551 kts | 53° |
| 2026-04-27 15:03 | 33.66347 | -45.01915 | 39187 ft | 552 kts | 53° |
| 2026-04-27 15:03 | 33.70301 | -44.93992 | 39182 ft | 552 kts | 53° |
| 2026-04-27 15:04 | 33.74252 | -44.86058 | 39177 ft | 552 kts | 53° |
| 2026-04-27 15:04 | 33.78184 | -44.78144 | 39179 ft | 552 kts | 53° |
| 2026-04-27 15:05 | 33.82095 | -44.70255 | 39182 ft | 552 kts | 53° |
| 2026-04-27 15:05 | 33.86025 | -44.62313 | 39176 ft | 553 kts | 54° |
| 2026-04-27 15:06 | 33.89951 | -44.54358 | 39177 ft | 553 kts | 54° |
| 2026-04-27 15:06 | 33.93887 | -44.46366 | 39171 ft | 554 kts | 54° |
| 2026-04-27 15:07 | 33.97809 | -44.38386 | 39167 ft | 554 kts | 54° |
| 2026-04-27 15:07 | 34.01708 | -44.30433 | 39165 ft | 554 kts | 54° |
| 2026-04-27 15:08 | 34.05627 | -44.22423 | 39167 ft | 555 kts | 54° |
| 2026-04-27 15:08 | 34.09548 | -44.14390 | 39162 ft | 555 kts | 54° |
| 2026-04-27 15:09 | 34.13462 | -44.06354 | 39160 ft | 555 kts | 54° |
| 2026-04-27 15:09 | 34.17368 | -43.98315 | 39162 ft | 556 kts | 54° |
| 2026-04-27 15:10 | 34.21279 | -43.90246 | 39162 ft | 557 kts | 54° |
| 2026-04-27 15:10 | 34.25191 | -43.82159 | 39147 ft | 557 kts | 54° |
| 2026-04-27 15:11 | 34.29080 | -43.74101 | 39151 ft | 557 kts | 54° |
| 2026-04-27 15:11 | 34.32980 | -43.66001 | 39153 ft | 557 kts | 54° |
| 2026-04-27 15:12 | 34.36884 | -43.57874 | 39149 ft | 557 kts | 54° |
| 2026-04-27 15:12 | 34.40770 | -43.49766 | 39150 ft | 557 kts | 54° |
| 2026-04-27 15:13 | 34.44656 | -43.41639 | 39144 ft | 557 kts | 54° |
| 2026-04-27 15:13 | 34.48513 | -43.33555 | 39147 ft | 557 kts | 54° |
| 2026-04-27 15:14 | 34.52393 | -43.25403 | 39143 ft | 558 kts | 54° |
| 2026-04-27 15:14 | 34.56266 | -43.17248 | 39147 ft | 559 kts | 54° |
| 2026-04-27 15:15 | 34.60143 | -43.09064 | 39141 ft | 559 kts | 54° |
| 2026-04-27 15:15 | 34.64020 | -43.00860 | 39134 ft | 560 kts | 54° |
| 2026-04-27 15:16 | 34.67865 | -42.92706 | 39139 ft | 560 kts | 54° |
| 2026-04-27 15:16 | 34.71742 | -42.84467 | 39133 ft | 561 kts | 54° |
| 2026-04-27 15:17 | 34.75606 | -42.76232 | 39133 ft | 561 kts | 54° |
| 2026-04-27 15:17 | 34.79473 | -42.67973 | 39128 ft | 561 kts | 54° |
| 2026-04-27 15:18 | 34.83328 | -42.59720 | 39132 ft | 561 kts | 54° |
| 2026-04-27 15:18 | 34.87185 | -42.51443 | 39114 ft | 562 kts | 54° |
| 2026-04-27 15:19 | 34.91017 | -42.43199 | 39118 ft | 562 kts | 54° |
| 2026-04-27 15:19 | 34.94866 | -42.34900 | 39137 ft | 562 kts | 54° |
| 2026-04-27 15:20 | 34.98069 | -42.27977 | 39117 ft | 563 kts | 54° |
| 2026-04-27 15:20 | 35.01911 | -42.19656 | 39118 ft | 563 kts | 55° |
| 2026-04-27 15:21 | 35.05747 | -42.11327 | 39113 ft | 563 kts | 55° |
| 2026-04-27 15:21 | 35.09584 | -42.02976 | 39115 ft | 563 kts | 55° |
| 2026-04-27 15:22 | 35.13411 | -41.94628 | 39112 ft | 563 kts | 55° |
| 2026-04-27 15:22 | 35.17228 | -41.86280 | 39114 ft | 562 kts | 55° |
| 2026-04-27 15:23 | 35.21017 | -41.77973 | 39109 ft | 563 kts | 55° |
| 2026-04-27 15:23 | 35.24829 | -41.69596 | 39103 ft | 563 kts | 55° |
| 2026-04-27 15:24 | 35.28639 | -41.61202 | 39109 ft | 563 kts | 55° |
| 2026-04-27 15:24 | 35.32431 | -41.52827 | 39105 ft | 563 kts | 55° |
| 2026-04-27 15:25 | 35.36227 | -41.44423 | 39102 ft | 564 kts | 55° |
| 2026-04-27 15:25 | 35.40019 | -41.36004 | 39104 ft | 564 kts | 56° |
| 2026-04-27 15:26 | 35.43808 | -41.27575 | 39096 ft | 564 kts | 56° |
| 2026-04-27 15:26 | 35.47568 | -41.19188 | 39098 ft | 563 kts | 56° |
| 2026-04-27 15:27 | 35.51335 | -41.10766 | 39092 ft | 563 kts | 56° |
| 2026-04-27 15:27 | 35.55110 | -41.02304 | 39092 ft | 564 kts | 56° |
| 2026-04-27 15:28 | 35.58879 | -40.93833 | 39088 ft | 565 kts | 56° |
| 2026-04-27 15:28 | 35.62635 | -40.85371 | 39085 ft | 564 kts | 56° |
| 2026-04-27 15:29 | 35.66373 | -40.76928 | 39087 ft | 564 kts | 56° |
| 2026-04-27 15:29 | 35.70122 | -40.68439 | 39087 ft | 565 kts | 56° |
| 2026-04-27 15:30 | 35.73869 | -40.59933 | 39080 ft | 566 kts | 56° |
| 2026-04-27 15:30 | 35.77598 | -40.51447 | 39076 ft | 565 kts | 56° |
| 2026-04-27 15:31 | 35.81331 | -40.42929 | 39073 ft | 565 kts | 56° |
| 2026-04-27 15:31 | 35.85075 | -40.34365 | 39079 ft | 564 kts | 56° |
| 2026-04-27 15:32 | 35.88766 | -40.25898 | 39077 ft | 563 kts | 56° |
| 2026-04-27 15:32 | 35.92471 | -40.17381 | 39071 ft | 563 kts | 56° |
| 2026-04-27 15:33 | 35.96180 | -40.08831 | 39072 ft | 563 kts | 56° |
| 2026-04-27 15:33 | 35.99953 | -40.00392 | 39078 ft | 557 kts | 48° |
| 2026-04-27 15:34 | 36.04834 | -39.93052 | 39071 ft | 550 kts | 42° |
| 2026-04-27 15:34 | 36.09808 | -39.85906 | 39056 ft | 551 kts | 42° |
| 2026-04-27 15:35 | 36.14794 | -39.78703 | 39060 ft | 551 kts | 42° |
| 2026-04-27 15:35 | 36.19761 | -39.71531 | 39058 ft | 551 kts | 42° |
| 2026-04-27 15:36 | 36.24740 | -39.64313 | 39058 ft | 550 kts | 43° |
| 2026-04-27 15:36 | 36.29715 | -39.57096 | 39050 ft | 550 kts | 43° |
| 2026-04-27 15:37 | 36.34675 | -39.49876 | 39056 ft | 551 kts | 43° |
| 2026-04-27 15:37 | 36.39623 | -39.42664 | 39053 ft | 550 kts | 43° |
| 2026-04-27 15:38 | 36.44581 | -39.35419 | 39040 ft | 550 kts | 43° |
| 2026-04-27 15:38 | 36.49519 | -39.28189 | 39052 ft | 550 kts | 43° |
| 2026-04-27 15:39 | 36.54465 | -39.20931 | 39039 ft | 550 kts | 43° |
| 2026-04-27 15:39 | 36.59414 | -39.13653 | 39042 ft | 550 kts | 44° |
| 2026-04-27 15:40 | 36.64352 | -39.06375 | 39040 ft | 550 kts | 44° |
| 2026-04-27 15:40 | 36.69270 | -38.99112 | 39036 ft | 551 kts | 44° |
| 2026-04-27 15:41 | 36.74208 | -38.91802 | 39037 ft | 551 kts | 44° |
| 2026-04-27 15:41 | 36.79144 | -38.84479 | 39036 ft | 552 kts | 44° |
| 2026-04-27 15:42 | 36.84082 | -38.77137 | 39034 ft | 552 kts | 44° |
| 2026-04-27 15:42 | 36.89005 | -38.69801 | 39020 ft | 552 kts | 45° |
| 2026-04-27 15:43 | 36.93953 | -38.62412 | 39017 ft | 552 kts | 45° |
| 2026-04-27 15:43 | 36.98848 | -38.55086 | 39024 ft | 552 kts | 45° |
| 2026-04-27 15:44 | 37.03793 | -38.47669 | 39025 ft | 552 kts | 45° |
| 2026-04-27 15:44 | 37.08681 | -38.40320 | 39020 ft | 552 kts | 45° |
| 2026-04-27 15:45 | 37.13615 | -38.32886 | 39018 ft | 553 kts | 45° |
| 2026-04-27 15:45 | 37.18531 | -38.25462 | 39015 ft | 553 kts | 46° |
| 2026-04-27 15:46 | 37.23446 | -38.18024 | 39012 ft | 554 kts | 46° |
| 2026-04-27 15:46 | 37.28359 | -38.10571 | 39017 ft | 554 kts | 46° |
| 2026-04-27 15:47 | 37.33254 | -38.03130 | 39009 ft | 555 kts | 46° |
| 2026-04-27 15:47 | 37.38172 | -37.95636 | 39006 ft | 556 kts | 46° |
| 2026-04-27 15:48 | 37.43100 | -37.88110 | 39006 ft | 556 kts | 46° |
| 2026-04-27 15:49 | 37.50475 | -37.76815 | 39005 ft | 557 kts | 47° |
| 2026-04-27 15:49 | 37.55395 | -37.69258 | 39002 ft | 557 kts | 47° |
| 2026-04-27 15:50 | 37.60275 | -37.61745 | 39000 ft | 558 kts | 47° |
| 2026-04-27 15:50 | 37.65206 | -37.54135 | 38997 ft | 559 kts | 47° |
| 2026-04-27 15:51 | 37.70117 | -37.46540 | 39001 ft | 559 kts | 47° |
| 2026-04-27 15:51 | 37.75051 | -37.38891 | 38996 ft | 560 kts | 47° |
| 2026-04-27 15:52 | 37.79952 | -37.31275 | 38993 ft | 561 kts | 48° |
| 2026-04-27 15:52 | 37.84892 | -37.23582 | 38991 ft | 561 kts | 48° |
| 2026-04-27 15:53 | 37.89810 | -37.15904 | 38990 ft | 562 kts | 48° |
| 2026-04-27 15:53 | 37.94712 | -37.08233 | 38988 ft | 562 kts | 48° |
| 2026-04-27 15:54 | 37.99621 | -37.00533 | 38981 ft | 563 kts | 48° |
| 2026-04-27 15:54 | 38.04544 | -36.92793 | 38981 ft | 563 kts | 49° |
| 2026-04-27 15:55 | 38.09436 | -36.85083 | 38980 ft | 563 kts | 49° |
| 2026-04-27 15:55 | 38.14352 | -36.77318 | 38979 ft | 564 kts | 49° |
| 2026-04-27 15:56 | 38.19266 | -36.69536 | 38967 ft | 564 kts | 49° |
| 2026-04-27 15:56 | 38.24178 | -36.61740 | 38968 ft | 565 kts | 49° |
| 2026-04-27 15:57 | 38.29094 | -36.53917 | 38969 ft | 565 kts | 49° |
| 2026-04-27 15:57 | 38.33995 | -36.46101 | 38972 ft | 565 kts | 49° |
| 2026-04-27 15:58 | 38.38910 | -36.38242 | 38968 ft | 565 kts | 49° |
| 2026-04-27 15:58 | 38.43781 | -36.30435 | 38968 ft | 565 kts | 50° |
| 2026-04-27 15:59 | 38.48672 | -36.22578 | 38966 ft | 565 kts | 50° |
| 2026-04-27 15:59 | 38.53561 | -36.14703 | 38968 ft | 565 kts | 50° |
| 2026-04-27 16:00 | 38.58434 | -36.06837 | 38966 ft | 566 kts | 50° |
| 2026-04-27 16:00 | 38.63325 | -35.98921 | 38963 ft | 566 kts | 50° |
| 2026-04-27 16:01 | 38.68178 | -35.91049 | 38963 ft | 566 kts | 50° |
| 2026-04-27 16:01 | 38.73060 | -35.83107 | 38963 ft | 567 kts | 50° |
| 2026-04-27 16:02 | 38.77921 | -35.75184 | 38961 ft | 567 kts | 50° |
| 2026-04-27 16:02 | 38.82787 | -35.67230 | 38963 ft | 567 kts | 50° |
| 2026-04-27 16:03 | 38.87620 | -35.59312 | 38962 ft | 566 kts | 51° |
| 2026-04-27 16:03 | 38.92480 | -35.51329 | 38959 ft | 566 kts | 51° |
| 2026-04-27 16:04 | 38.97328 | -35.43347 | 38953 ft | 565 kts | 51° |
| 2026-04-27 16:04 | 39.02159 | -35.35373 | 38953 ft | 566 kts | 51° |
| 2026-04-27 16:05 | 39.06966 | -35.27418 | 38947 ft | 565 kts | 51° |
| 2026-04-27 16:05 | 39.11781 | -35.19431 | 38947 ft | 565 kts | 51° |
| 2026-04-27 16:06 | 39.16595 | -35.11425 | 38943 ft | 565 kts | 51° |
| 2026-04-27 16:06 | 39.20600 | -35.04748 | 38944 ft | 565 kts | 51° |
| 2026-04-27 16:07 | 39.25405 | -34.96721 | 38941 ft | 564 kts | 51° |
| 2026-04-27 16:07 | 39.30183 | -34.88717 | 38943 ft | 564 kts | 52° |
| 2026-04-27 16:08 | 39.34969 | -34.80681 | 38938 ft | 564 kts | 52° |
| 2026-04-27 16:08 | 39.39753 | -34.72628 | 38939 ft | 564 kts | 52° |
| 2026-04-27 16:09 | 39.44498 | -34.64620 | 38938 ft | 563 kts | 52° |
| 2026-04-27 16:09 | 39.51634 | -34.52539 | 38935 ft | 563 kts | 52° |
| 2026-04-27 16:10 | 39.61120 | -34.36408 | 38933 ft | 562 kts | 52° |
| 2026-04-27 16:11 | 39.68182 | -34.24345 | 38933 ft | 561 kts | 53° |
| 2026-04-27 16:12 | 39.75241 | -34.12240 | 38948 ft | 560 kts | 53° |
| 2026-04-27 16:13 | 39.82286 | -34.00115 | 38941 ft | 559 kts | 53° |
| 2026-04-27 16:13 | 39.89298 | -33.87998 | 38936 ft | 558 kts | 53° |
| 2026-04-27 16:14 | 39.98589 | -33.71873 | 38932 ft | 557 kts | 53° |
| 2026-04-27 16:15 | 40.07840 | -33.55734 | 38930 ft | 555 kts | 53° |
| 2026-04-27 16:16 | 40.17047 | -33.39588 | 38932 ft | 553 kts | 53° |
| 2026-04-27 16:17 | 40.26229 | -33.23404 | 38933 ft | 552 kts | 54° |
| 2026-04-27 16:18 | 40.35342 | -33.07259 | 38932 ft | 551 kts | 54° |
| 2026-04-27 16:19 | 40.39879 | -32.99190 | 38941 ft | 550 kts | 54° |
| 2026-04-27 16:20 | 40.48948 | -32.82996 | 38945 ft | 549 kts | 54° |
| 2026-04-27 16:21 | 40.55695 | -32.70896 | 38938 ft | 548 kts | 54° |
| 2026-04-27 16:22 | 40.64687 | -32.54693 | 38939 ft | 547 kts | 54° |
| 2026-04-27 16:22 | 40.71405 | -32.42534 | 38933 ft | 546 kts | 54° |
| 2026-04-27 16:23 | 40.78072 | -32.30418 | 38933 ft | 545 kts | 54° |
| 2026-04-27 16:24 | 40.82537 | -32.22278 | 38938 ft | 544 kts | 54° |
| 2026-04-27 16:25 | 40.91356 | -32.06138 | 38938 ft | 542 kts | 54° |
| 2026-04-27 16:26 | 41.00161 | -31.89937 | 38935 ft | 541 kts | 55° |
| 2026-04-27 16:27 | 41.08912 | -31.73753 | 38932 ft | 539 kts | 55° |
| 2026-04-27 16:27 | 41.15412 | -31.61675 | 39077 ft | 538 kts | 55° |
| 2026-04-27 16:28 | 41.19805 | -31.53485 | 38937 ft | 547 kts | 55° |
| 2026-04-27 16:29 | 41.30879 | -31.32745 | 38947 ft | 551 kts | 55° |
| 2026-04-27 16:30 | 41.39728 | -31.16070 | 38945 ft | 550 kts | 55° |
| 2026-04-27 16:31 | 41.50704 | -30.95260 | 38940 ft | 549 kts | 56° |
| 2026-04-27 16:32 | 41.57276 | -30.82730 | 38936 ft | 548 kts | 56° |
| 2026-04-27 16:33 | 41.63817 | -30.70211 | 38930 ft | 547 kts | 56° |
| 2026-04-27 16:33 | 41.68164 | -30.61863 | 38931 ft | 546 kts | 56° |
| 2026-04-27 16:34 | 41.72495 | -30.53521 | 38929 ft | 545 kts | 56° |
| 2026-04-27 16:34 | 41.76821 | -30.45165 | 38933 ft | 545 kts | 56° |
| 2026-04-27 16:35 | 41.81103 | -30.36873 | 38935 ft | 544 kts | 56° |
| 2026-04-27 16:36 | 41.87553 | -30.24339 | 38936 ft | 544 kts | 56° |
| 2026-04-27 16:36 | 41.91846 | -30.15968 | 38936 ft | 543 kts | 56° |
| 2026-04-27 16:37 | 41.96117 | -30.07617 | 38941 ft | 542 kts | 56° |
| 2026-04-27 16:37 | 42.00458 | -29.99304 | 38950 ft | 542 kts | 49° |
| 2026-04-27 16:38 | 42.05419 | -29.91689 | 38954 ft | 542 kts | 48° |
| 2026-04-27 16:38 | 42.10391 | -29.84049 | 38958 ft | 542 kts | 49° |
| 2026-04-27 16:39 | 42.15348 | -29.76391 | 38957 ft | 541 kts | 49° |
| 2026-04-27 16:39 | 42.20295 | -29.68756 | 38956 ft | 540 kts | 49° |
| 2026-04-27 16:40 | 42.25222 | -29.61107 | 38958 ft | 540 kts | 49° |
| 2026-04-27 16:40 | 42.30113 | -29.53515 | 38959 ft | 539 kts | 49° |
| 2026-04-27 16:41 | 42.35034 | -29.45840 | 38959 ft | 539 kts | 49° |
| 2026-04-27 16:41 | 42.39937 | -29.38185 | 38960 ft | 538 kts | 49° |
| 2026-04-27 16:42 | 42.44824 | -29.30527 | 38959 ft | 537 kts | 49° |
| 2026-04-27 16:42 | 42.49710 | -29.22858 | 38962 ft | 537 kts | 49° |
| 2026-04-27 16:43 | 42.54546 | -29.15241 | 38962 ft | 536 kts | 50° |
| 2026-04-27 16:43 | 42.59410 | -29.07563 | 38967 ft | 536 kts | 50° |
| 2026-04-27 16:44 | 42.64265 | -28.99879 | 38972 ft | 535 kts | 50° |
| 2026-04-27 16:44 | 42.69108 | -28.92193 | 38978 ft | 535 kts | 50° |
| 2026-04-27 16:45 | 42.73934 | -28.84516 | 38980 ft | 534 kts | 50° |
| 2026-04-27 16:45 | 42.78755 | -28.76825 | 38981 ft | 533 kts | 50° |
| 2026-04-27 16:46 | 42.83572 | -28.69121 | 38986 ft | 533 kts | 50° |
| 2026-04-27 16:46 | 42.88348 | -28.61463 | 38987 ft | 531 kts | 50° |
| 2026-04-27 16:47 | 42.93123 | -28.53784 | 38997 ft | 531 kts | 50° |
| 2026-04-27 16:47 | 42.97894 | -28.46094 | 38990 ft | 530 kts | 50° |
| 2026-04-27 16:48 | 43.02655 | -28.38398 | 38996 ft | 529 kts | 51° |
| 2026-04-27 16:48 | 43.07392 | -28.30722 | 38997 ft | 528 kts | 51° |
| 2026-04-27 16:49 | 43.14442 | -28.19260 | 39003 ft | 527 kts | 51° |
| 2026-04-27 16:49 | 43.19154 | -28.11573 | 39007 ft | 526 kts | 51° |
| 2026-04-27 16:50 | 43.23857 | -28.03881 | 39010 ft | 526 kts | 51° |
| 2026-04-27 16:50 | 43.28559 | -27.96171 | 39009 ft | 526 kts | 51° |
| 2026-04-27 16:51 | 43.33270 | -27.88425 | 39014 ft | 526 kts | 51° |
| 2026-04-27 16:51 | 43.37953 | -27.80705 | 39016 ft | 526 kts | 51° |
| 2026-04-27 16:52 | 43.42626 | -27.72980 | 39020 ft | 525 kts | 52° |
| 2026-04-27 16:52 | 43.47267 | -27.65289 | 39025 ft | 525 kts | 52° |
| 2026-04-27 16:53 | 43.51934 | -27.57533 | 39024 ft | 525 kts | 52° |
| 2026-04-27 16:53 | 43.55802 | -27.51089 | 39027 ft | 524 kts | 52° |
| 2026-04-27 16:54 | 43.60442 | -27.43341 | 39033 ft | 524 kts | 52° |
| 2026-04-27 16:54 | 43.65082 | -27.35573 | 39035 ft | 524 kts | 52° |
| 2026-04-27 16:55 | 43.69709 | -27.27804 | 39051 ft | 523 kts | 52° |
| 2026-04-27 16:55 | 43.74341 | -27.20007 | 39052 ft | 523 kts | 52° |
| 2026-04-27 16:56 | 43.78946 | -27.12235 | 39056 ft | 523 kts | 52° |
| 2026-04-27 16:56 | 43.83540 | -27.04460 | 39056 ft | 523 kts | 52° |
| 2026-04-27 16:57 | 43.88145 | -26.96644 | 39059 ft | 523 kts | 52° |
| 2026-04-27 16:57 | 43.92739 | -26.88827 | 39056 ft | 523 kts | 53° |
| 2026-04-27 16:58 | 43.97349 | -26.80961 | 39062 ft | 524 kts | 53° |
| 2026-04-27 16:58 | 44.01922 | -26.73138 | 39059 ft | 525 kts | 53° |
| 2026-04-27 16:59 | 44.06539 | -26.65217 | 39068 ft | 525 kts | 53° |
| 2026-04-27 16:59 | 44.11126 | -26.57327 | 39068 ft | 525 kts | 53° |
| 2026-04-27 17:00 | 44.17971 | -26.45512 | 39077 ft | 525 kts | 53° |
| 2026-04-27 17:01 | 44.22549 | -26.37581 | 39079 ft | 525 kts | 53° |
| 2026-04-27 17:01 | 44.27130 | -26.29626 | 39081 ft | 525 kts | 53° |
| 2026-04-27 17:02 | 44.31706 | -26.21656 | 39085 ft | 524 kts | 53° |
| 2026-04-27 17:02 | 44.36255 | -26.13712 | 39087 ft | 523 kts | 53° |
| 2026-04-27 17:03 | 44.40798 | -26.05756 | 39095 ft | 524 kts | 53° |
| 2026-04-27 17:03 | 44.45315 | -25.97823 | 39095 ft | 524 kts | 53° |
| 2026-04-27 17:04 | 44.49846 | -25.89844 | 39098 ft | 524 kts | 53° |
| 2026-04-27 17:04 | 44.54387 | -25.81824 | 39101 ft | 524 kts | 53° |
| 2026-04-27 17:05 | 44.58894 | -25.73844 | 39108 ft | 524 kts | 54° |
| 2026-04-27 17:05 | 44.63408 | -25.65827 | 39111 ft | 523 kts | 54° |
| 2026-04-27 17:06 | 44.67912 | -25.57807 | 39118 ft | 523 kts | 54° |
| 2026-04-27 17:06 | 44.72420 | -25.49757 | 39123 ft | 523 kts | 54° |
| 2026-04-27 17:07 | 44.76916 | -25.41705 | 39124 ft | 523 kts | 54° |
| 2026-04-27 17:07 | 44.81406 | -25.33642 | 39140 ft | 523 kts | 53° |
| 2026-04-27 17:08 | 44.85875 | -25.25593 | 39136 ft | 523 kts | 53° |
| 2026-04-27 17:08 | 44.90351 | -25.17510 | 39138 ft | 523 kts | 53° |
| 2026-04-27 17:09 | 44.94812 | -25.09431 | 39141 ft | 522 kts | 53° |
| 2026-04-27 17:09 | 44.99179 | -25.01210 | 39157 ft | 519 kts | 63° |
| 2026-04-27 17:09 | 45.00736 | -24.96637 | 39174 ft | 515 kts | 74° |
| 2026-04-27 17:10 | 45.01850 | -24.91848 | 39157 ft | 515 kts | 75° |
| 2026-04-27 17:10 | 45.03998 | -24.82186 | 39165 ft | 514 kts | 75° |
| 2026-04-27 17:11 | 45.06145 | -24.72623 | 39172 ft | 513 kts | 75° |
| 2026-04-27 17:11 | 45.09344 | -24.58186 | 39176 ft | 512 kts | 75° |
| 2026-04-27 17:12 | 45.12514 | -24.43822 | 39175 ft | 509 kts | 75° |
| 2026-04-27 17:13 | 45.14623 | -24.34204 | 39178 ft | 507 kts | 75° |
| 2026-04-27 17:13 | 45.16704 | -24.24669 | 39175 ft | 506 kts | 75° |
| 2026-04-27 17:14 | 45.18762 | -24.15202 | 39182 ft | 504 kts | 75° |
| 2026-04-27 17:14 | 45.20810 | -24.05734 | 39202 ft | 503 kts | 75° |
| 2026-04-27 17:15 | 45.22856 | -23.96229 | 39195 ft | 503 kts | 75° |
| 2026-04-27 17:15 | 45.24887 | -23.86758 | 39200 ft | 502 kts | 75° |
| 2026-04-27 17:16 | 45.26913 | -23.77260 | 39209 ft | 501 kts | 75° |
| 2026-04-27 17:16 | 45.28921 | -23.67807 | 39211 ft | 500 kts | 75° |
| 2026-04-27 17:17 | 45.30918 | -23.58362 | 39204 ft | 498 kts | 75° |
| 2026-04-27 17:17 | 45.32892 | -23.48980 | 39209 ft | 497 kts | 75° |
| 2026-04-27 17:18 | 45.35840 | -23.34893 | 39211 ft | 495 kts | 75° |
| 2026-04-27 17:18 | 45.37795 | -23.25493 | 39218 ft | 494 kts | 75° |
| 2026-04-27 17:19 | 45.39732 | -23.16138 | 39221 ft | 494 kts | 75° |
| 2026-04-27 17:19 | 45.41667 | -23.06752 | 39225 ft | 493 kts | 75° |
| 2026-04-27 17:20 | 45.43591 | -22.97376 | 39225 ft | 493 kts | 75° |
| 2026-04-27 17:20 | 45.45504 | -22.88006 | 39227 ft | 493 kts | 75° |
| 2026-04-27 17:21 | 45.47414 | -22.78606 | 39231 ft | 492 kts | 75° |
| 2026-04-27 17:21 | 45.49298 | -22.69296 | 39232 ft | 493 kts | 75° |
| 2026-04-27 17:22 | 45.51188 | -22.59906 | 39240 ft | 493 kts | 75° |
| 2026-04-27 17:22 | 45.53071 | -22.50512 | 39241 ft | 493 kts | 75° |
| 2026-04-27 17:23 | 45.54948 | -22.41101 | 39242 ft | 492 kts | 75° |
| 2026-04-27 17:23 | 45.56818 | -22.31679 | 39243 ft | 492 kts | 75° |
| 2026-04-27 17:24 | 45.58675 | -22.22276 | 39241 ft | 493 kts | 75° |
| 2026-04-27 17:24 | 45.60516 | -22.12909 | 39252 ft | 492 kts | 75° |
| 2026-04-27 17:25 | 45.62363 | -22.03469 | 39253 ft | 492 kts | 75° |
| 2026-04-27 17:25 | 45.64192 | -21.94072 | 39251 ft | 492 kts | 75° |
| 2026-04-27 17:26 | 45.66021 | -21.84635 | 39253 ft | 492 kts | 75° |
| 2026-04-27 17:26 | 45.67842 | -21.75190 | 39252 ft | 492 kts | 75° |
| 2026-04-27 17:27 | 45.69650 | -21.65764 | 39258 ft | 492 kts | 75° |
| 2026-04-27 17:27 | 45.71453 | -21.56316 | 39261 ft | 492 kts | 75° |
| 2026-04-27 17:28 | 45.73237 | -21.46923 | 39261 ft | 492 kts | 75° |
| 2026-04-27 17:29 | 45.75921 | -21.32708 | 39262 ft | 492 kts | 75° |
| 2026-04-27 17:29 | 45.77694 | -21.23255 | 39266 ft | 491 kts | 74° |
| 2026-04-27 17:30 | 45.79449 | -21.13848 | 39268 ft | 490 kts | 74° |
| 2026-04-27 17:30 | 45.82073 | -20.99700 | 39271 ft | 490 kts | 74° |
| 2026-04-27 17:31 | 45.83815 | -20.90246 | 39275 ft | 489 kts | 74° |
| 2026-04-27 17:31 | 45.85544 | -20.80820 | 39276 ft | 489 kts | 74° |
| 2026-04-27 17:32 | 45.88129 | -20.66628 | 39282 ft | 490 kts | 74° |
| 2026-04-27 17:33 | 45.89830 | -20.57233 | 39284 ft | 489 kts | 74° |
| 2026-04-27 17:33 | 45.91532 | -20.47781 | 39291 ft | 490 kts | 74° |
| 2026-04-27 17:34 | 45.93235 | -20.38272 | 39291 ft | 490 kts | 74° |
| 2026-04-27 17:34 | 45.94924 | -20.28794 | 39294 ft | 490 kts | 74° |
| 2026-04-27 17:35 | 45.96613 | -20.19269 | 39292 ft | 491 kts | 73° |
| 2026-04-27 17:35 | 45.98288 | -20.09768 | 39289 ft | 491 kts | 73° |
| 2026-04-27 17:36 | 46.00138 | -20.00342 | 39312 ft | 487 kts | 63° |
| 2026-04-27 17:36 | 46.03481 | -19.92010 | 39293 ft | 484 kts | 55° |
| 2026-04-27 17:37 | 46.07064 | -19.83826 | 39297 ft | 483 kts | 55° |
| 2026-04-27 17:37 | 46.10628 | -19.75598 | 39294 ft | 483 kts | 55° |
| 2026-04-27 17:38 | 46.14179 | -19.67413 | 39299 ft | 482 kts | 55° |
| 2026-04-27 17:38 | 46.17727 | -19.59187 | 39303 ft | 482 kts | 55° |
| 2026-04-27 17:39 | 46.21275 | -19.50950 | 39300 ft | 481 kts | 55° |
| 2026-04-27 17:39 | 46.24786 | -19.42769 | 39306 ft | 481 kts | 55° |
| 2026-04-27 17:40 | 46.28304 | -19.34550 | 39303 ft | 481 kts | 56° |
| 2026-04-27 17:40 | 46.31810 | -19.26334 | 39304 ft | 480 kts | 56° |
| 2026-04-27 17:41 | 46.35313 | -19.18101 | 39310 ft | 480 kts | 56° |
| 2026-04-27 17:41 | 46.38792 | -19.09901 | 39310 ft | 479 kts | 56° |
| 2026-04-27 17:42 | 46.42278 | -19.01660 | 39317 ft | 479 kts | 56° |
| 2026-04-27 17:42 | 46.45752 | -18.93420 | 39319 ft | 479 kts | 56° |
| 2026-04-27 17:43 | 46.48624 | -18.86591 | 39319 ft | 478 kts | 57° |
| 2026-04-27 17:43 | 46.52085 | -18.78340 | 39314 ft | 478 kts | 57° |
| 2026-04-27 17:44 | 46.55546 | -18.70063 | 39322 ft | 478 kts | 57° |
| 2026-04-27 17:44 | 46.58991 | -18.61799 | 39323 ft | 478 kts | 57° |
| 2026-04-27 17:45 | 46.62417 | -18.53558 | 39321 ft | 478 kts | 57° |
| 2026-04-27 17:45 | 46.65846 | -18.45283 | 39323 ft | 478 kts | 57° |
| 2026-04-27 17:46 | 46.69280 | -18.36970 | 39328 ft | 479 kts | 57° |
| 2026-04-27 17:46 | 46.72703 | -18.28661 | 39327 ft | 479 kts | 57° |
| 2026-04-27 17:47 | 46.76128 | -18.20320 | 39330 ft | 477 kts | 57° |
| 2026-04-27 17:47 | 46.79514 | -18.12051 | 39328 ft | 476 kts | 58° |
| 2026-04-27 17:48 | 46.82902 | -18.03751 | 39329 ft | 475 kts | 58° |
| 2026-04-27 17:48 | 46.86276 | -17.95459 | 39316 ft | 475 kts | 58° |
| 2026-04-27 17:49 | 46.89649 | -17.87147 | 39318 ft | 475 kts | 58° |
| 2026-04-27 17:49 | 46.93013 | -17.78829 | 39324 ft | 475 kts | 58° |
| 2026-04-27 17:50 | 46.96377 | -17.70487 | 39326 ft | 474 kts | 58° |
| 2026-04-27 17:50 | 47.01362 | -17.58079 | 39330 ft | 472 kts | 58° |
| 2026-04-27 17:51 | 47.04697 | -17.49745 | 39333 ft | 473 kts | 58° |
| 2026-04-27 17:51 | 47.08004 | -17.41456 | 39336 ft | 473 kts | 58° |
| 2026-04-27 17:52 | 47.11316 | -17.33129 | 39339 ft | 472 kts | 58° |
| 2026-04-27 17:52 | 47.14617 | -17.24805 | 39337 ft | 471 kts | 58° |
| 2026-04-27 17:53 | 47.17909 | -17.16478 | 39342 ft | 471 kts | 58° |
| 2026-04-27 17:53 | 47.21207 | -17.08110 | 39343 ft | 472 kts | 58° |
| 2026-04-27 17:54 | 47.24487 | -16.99761 | 39343 ft | 471 kts | 58° |
| 2026-04-27 17:54 | 47.27763 | -16.91398 | 39345 ft | 471 kts | 59° |
| 2026-04-27 17:55 | 47.31023 | -16.83047 | 39341 ft | 470 kts | 59° |
| 2026-04-27 17:55 | 47.34280 | -16.74680 | 39348 ft | 469 kts | 59° |
| 2026-04-27 17:56 | 47.37507 | -16.66366 | 39351 ft | 471 kts | 59° |
| 2026-04-27 17:56 | 47.40754 | -16.57972 | 39350 ft | 471 kts | 59° |
| 2026-04-27 17:57 | 47.42277 | -16.54025 | 39352 ft | 471 kts | 59° |
| 2026-04-27 17:57 | 47.45522 | -16.45598 | 39353 ft | 470 kts | 59° |
| 2026-04-27 17:58 | 47.48744 | -16.37206 | 39354 ft | 470 kts | 59° |
| 2026-04-27 17:58 | 47.51969 | -16.28778 | 39355 ft | 470 kts | 59° |
| 2026-04-27 17:59 | 47.55161 | -16.20411 | 39355 ft | 470 kts | 59° |
| 2026-04-27 17:59 | 47.58378 | -16.11950 | 39357 ft | 470 kts | 59° |
| 2026-04-27 18:00 | 47.61577 | -16.03511 | 39357 ft | 470 kts | 59° |
| 2026-04-27 18:00 | 47.64777 | -15.95044 | 39352 ft | 470 kts | 59° |
| 2026-04-27 18:01 | 47.67966 | -15.86578 | 39353 ft | 470 kts | 59° |
| 2026-04-27 18:01 | 47.71155 | -15.78086 | 39358 ft | 470 kts | 59° |
| 2026-04-27 18:02 | 47.74314 | -15.69644 | 39360 ft | 471 kts | 59° |
| 2026-04-27 18:02 | 47.77497 | -15.61115 | 39356 ft | 470 kts | 59° |
| 2026-04-27 18:03 | 47.80654 | -15.52625 | 39359 ft | 470 kts | 59° |
| 2026-04-27 18:03 | 47.83819 | -15.44089 | 39361 ft | 470 kts | 60° |
| 2026-04-27 18:04 | 47.86951 | -15.35614 | 39361 ft | 471 kts | 60° |
| 2026-04-27 18:04 | 47.90103 | -15.27056 | 39359 ft | 471 kts | 60° |
| 2026-04-27 18:05 | 47.93255 | -15.18471 | 39359 ft | 471 kts | 60° |
| 2026-04-27 18:05 | 47.96395 | -15.09891 | 39359 ft | 471 kts | 60° |
| 2026-04-27 18:06 | 47.99534 | -15.01285 | 39360 ft | 471 kts | 60° |
| 2026-04-27 18:06 | 48.02264 | -14.92389 | 39356 ft | 471 kts | 65° |
| 2026-04-27 18:07 | 48.04909 | -14.83440 | 39361 ft | 470 kts | 65° |
| 2026-04-27 18:07 | 48.07536 | -14.74544 | 39362 ft | 470 kts | 65° |
| 2026-04-27 18:08 | 48.10165 | -14.65586 | 39362 ft | 470 kts | 65° |
| 2026-04-27 18:08 | 48.12796 | -14.56607 | 39364 ft | 470 kts | 65° |
| 2026-04-27 18:09 | 48.15419 | -14.47611 | 39363 ft | 471 kts | 65° |
| 2026-04-27 18:09 | 48.18041 | -14.38590 | 39355 ft | 472 kts | 65° |
| 2026-04-27 18:10 | 48.20631 | -14.29644 | 39362 ft | 471 kts | 65° |
| 2026-04-27 18:10 | 48.23227 | -14.20644 | 39365 ft | 471 kts | 65° |
| 2026-04-27 18:11 | 48.25837 | -14.11563 | 39359 ft | 471 kts | 65° |
| 2026-04-27 18:11 | 48.28407 | -14.02587 | 39360 ft | 471 kts | 65° |
| 2026-04-27 18:12 | 48.31000 | -13.93496 | 39362 ft | 472 kts | 65° |
| 2026-04-27 18:12 | 48.33574 | -13.84438 | 39355 ft | 472 kts | 65° |
| 2026-04-27 18:13 | 48.36140 | -13.75373 | 39358 ft | 471 kts | 65° |
| 2026-04-27 18:13 | 48.38697 | -13.66308 | 39358 ft | 471 kts | 65° |
| 2026-04-27 18:14 | 48.41248 | -13.57227 | 39361 ft | 470 kts | 65° |
| 2026-04-27 18:14 | 48.43771 | -13.48211 | 39359 ft | 470 kts | 66° |
| 2026-04-27 18:15 | 48.46304 | -13.39130 | 39355 ft | 470 kts | 66° |
| 2026-04-27 18:15 | 48.48834 | -13.30019 | 39356 ft | 470 kts | 66° |
| 2026-04-27 18:16 | 48.51355 | -13.20907 | 39359 ft | 469 kts | 66° |
| 2026-04-27 18:16 | 48.53845 | -13.11874 | 39355 ft | 470 kts | 66° |
| 2026-04-27 18:17 | 48.56349 | -13.02754 | 39357 ft | 469 kts | 66° |
| 2026-04-27 18:17 | 48.58843 | -12.93637 | 39358 ft | 469 kts | 66° |
| 2026-04-27 18:18 | 48.61333 | -12.84499 | 39358 ft | 469 kts | 66° |
| 2026-04-27 18:18 | 48.63807 | -12.75381 | 39358 ft | 469 kts | 66° |
| 2026-04-27 18:19 | 48.66267 | -12.66283 | 39356 ft | 470 kts | 66° |
| 2026-04-27 18:19 | 48.68728 | -12.57143 | 39355 ft | 470 kts | 66° |
| 2026-04-27 18:20 | 48.71188 | -12.47975 | 39354 ft | 469 kts | 66° |
| 2026-04-27 18:20 | 48.73633 | -12.38824 | 39351 ft | 469 kts | 66° |
| 2026-04-27 18:21 | 48.76079 | -12.29631 | 39353 ft | 469 kts | 66° |
| 2026-04-27 18:21 | 48.78499 | -12.20504 | 39352 ft | 469 kts | 66° |
| 2026-04-27 18:22 | 48.80925 | -12.11313 | 39351 ft | 469 kts | 66° |
| 2026-04-27 18:22 | 48.83702 | -12.02373 | 39357 ft | 467 kts | 53° |
| 2026-04-27 18:23 | 48.88206 | -11.95372 | 39362 ft | 465 kts | 36° |
| 2026-04-27 18:23 | 48.93472 | -11.89649 | 39351 ft | 465 kts | 35° |
| 2026-04-27 18:24 | 48.98751 | -11.83941 | 39351 ft | 466 kts | 35° |
| 2026-04-27 18:24 | 49.03798 | -11.77789 | 39365 ft | 467 kts | 47° |
| 2026-04-27 18:25 | 49.05770 | -11.73909 | 39360 ft | 469 kts | 58° |
| 2026-04-27 18:25 | 49.07269 | -11.69484 | 39364 ft | 471 kts | 65° |
| 2026-04-27 18:25 | 49.09794 | -11.60249 | 39353 ft | 471 kts | 66° |
| 2026-04-27 18:26 | 49.12280 | -11.51008 | 39351 ft | 471 kts | 66° |
| 2026-04-27 18:26 | 49.14788 | -11.41717 | 39348 ft | 472 kts | 66° |
| 2026-04-27 18:27 | 49.17265 | -11.32464 | 39349 ft | 471 kts | 66° |
| 2026-04-27 18:27 | 49.19742 | -11.23196 | 39349 ft | 470 kts | 66° |
| 2026-04-27 18:28 | 49.22192 | -11.13982 | 39350 ft | 470 kts | 66° |
| 2026-04-27 18:28 | 49.24640 | -11.04748 | 39334 ft | 469 kts | 66° |
| 2026-04-27 18:29 | 49.27087 | -10.95464 | 39332 ft | 469 kts | 66° |
| 2026-04-27 18:29 | 49.29523 | -10.86211 | 39331 ft | 470 kts | 66° |
| 2026-04-27 18:30 | 49.31552 | -10.78451 | 39337 ft | 470 kts | 66° |
| 2026-04-27 18:30 | 49.34379 | -10.67618 | 39340 ft | 471 kts | 67° |
| 2026-04-27 18:31 | 49.36407 | -10.59804 | 39340 ft | 472 kts | 67° |
| 2026-04-27 18:31 | 49.38831 | -10.50440 | 39334 ft | 471 kts | 67° |
| 2026-04-27 18:32 | 49.41239 | -10.41094 | 39338 ft | 471 kts | 67° |
| 2026-04-27 18:32 | 49.43649 | -10.31702 | 39342 ft | 471 kts | 67° |
| 2026-04-27 18:33 | 49.46031 | -10.22384 | 39341 ft | 472 kts | 67° |
| 2026-04-27 18:33 | 49.48439 | -10.12921 | 39345 ft | 472 kts | 67° |
| 2026-04-27 18:34 | 49.50808 | -10.03575 | 39344 ft | 471 kts | 67° |
| 2026-04-27 18:34 | 49.53170 | -9.94217 | 39342 ft | 471 kts | 67° |
| 2026-04-27 18:35 | 49.55538 | -9.84797 | 39346 ft | 471 kts | 67° |
| 2026-04-27 18:35 | 49.57899 | -9.75364 | 39338 ft | 471 kts | 68° |
| 2026-04-27 18:36 | 49.60253 | -9.65920 | 39337 ft | 472 kts | 68° |
| 2026-04-27 18:36 | 49.62577 | -9.56555 | 39336 ft | 471 kts | 68° |
| 2026-04-27 18:37 | 49.64932 | -9.47029 | 39340 ft | 471 kts | 68° |
| 2026-04-27 18:37 | 49.67227 | -9.37702 | 39339 ft | 472 kts | 68° |
| 2026-04-27 18:38 | 49.68910 | -9.30838 | 39333 ft | 472 kts | 68° |
| 2026-04-27 18:38 | 49.71210 | -9.21423 | 39333 ft | 472 kts | 68° |
| 2026-04-27 18:39 | 49.73544 | -9.11829 | 39335 ft | 472 kts | 68° |
| 2026-04-27 18:39 | 49.75686 | -9.02985 | 39329 ft | 472 kts | 68° |
| 2026-04-27 18:40 | 49.77944 | -8.93626 | 39331 ft | 472 kts | 68° |
| 2026-04-27 18:40 | 49.80223 | -8.84135 | 39338 ft | 473 kts | 68° |
| 2026-04-27 18:41 | 49.82502 | -8.74607 | 39337 ft | 473 kts | 68° |
| 2026-04-27 18:41 | 49.84775 | -8.65062 | 39333 ft | 473 kts | 68° |
| 2026-04-27 18:42 | 49.86673 | -8.57056 | 39335 ft | 473 kts | 68° |
| 2026-04-27 18:42 | 49.89273 | -8.46047 | 39332 ft | 472 kts | 68° |
| 2026-04-27 18:43 | 49.91525 | -8.36457 | 39327 ft | 471 kts | 68° |
| 2026-04-27 18:43 | 49.93723 | -8.27068 | 39333 ft | 472 kts | 68° |
| 2026-04-27 18:44 | 49.95966 | -8.17432 | 39330 ft | 472 kts | 68° |
| 2026-04-27 18:44 | 49.98204 | -8.07786 | 39328 ft | 472 kts | 68° |
| 2026-04-27 18:45 | 50.00440 | -7.98288 | 39335 ft | 472 kts | 66° |
| 2026-04-27 18:45 | 50.02868 | -7.88821 | 39329 ft | 472 kts | 67° |
| 2026-04-27 18:46 | 50.05072 | -7.80138 | 39327 ft | 472 kts | 66° |
| 2026-04-27 18:46 | 50.07518 | -7.70562 | 39329 ft | 473 kts | 67° |
| 2026-04-27 18:47 | 50.09896 | -7.61119 | 39327 ft | 473 kts | 66° |
| 2026-04-27 18:47 | 50.12278 | -7.51696 | 39329 ft | 474 kts | 67° |
| 2026-04-27 18:48 | 50.14668 | -7.42142 | 39325 ft | 474 kts | 67° |
| 2026-04-27 18:48 | 50.17080 | -7.32498 | 39326 ft | 474 kts | 67° |
| 2026-04-27 18:49 | 50.19440 | -7.22995 | 39328 ft | 474 kts | 67° |
| 2026-04-27 18:49 | 50.21792 | -7.13508 | 39327 ft | 474 kts | 67° |
| 2026-04-27 18:50 | 50.24106 | -7.04113 | 39328 ft | 474 kts | 67° |
| 2026-04-27 18:50 | 50.26441 | -6.94606 | 39321 ft | 475 kts | 67° |
| 2026-04-27 18:51 | 50.28710 | -6.85322 | 39322 ft | 475 kts | 67° |
| 2026-04-27 18:51 | 50.31006 | -6.75895 | 39320 ft | 476 kts | 67° |
| 2026-04-27 18:52 | 50.32897 | -6.68092 | 39321 ft | 477 kts | 67° |
| 2026-04-27 18:53 | 50.36813 | -6.51853 | 39317 ft | 478 kts | 67° |
| 2026-04-27 18:53 | 50.39109 | -6.42276 | 39315 ft | 478 kts | 67° |
| 2026-04-27 18:54 | 50.41062 | -6.34096 | 39311 ft | 478 kts | 67° |
| 2026-04-27 18:54 | 50.43376 | -6.24362 | 39316 ft | 479 kts | 67° |
| 2026-04-27 18:55 | 50.45687 | -6.14598 | 39318 ft | 478 kts | 68° |
| 2026-04-27 18:55 | 50.47918 | -6.05133 | 39308 ft | 478 kts | 68° |
| 2026-04-27 18:56 | 50.50191 | -5.95441 | 39309 ft | 479 kts | 68° |
| 2026-04-27 18:56 | 50.52497 | -5.85568 | 39311 ft | 479 kts | 68° |
| 2026-04-27 18:57 | 50.54782 | -5.75737 | 39305 ft | 479 kts | 68° |
| 2026-04-27 18:57 | 50.57038 | -5.65991 | 39307 ft | 480 kts | 68° |
| 2026-04-27 18:58 | 50.59332 | -5.56029 | 39298 ft | 480 kts | 68° |
| 2026-04-27 18:58 | 50.61559 | -5.46315 | 39299 ft | 481 kts | 68° |
| 2026-04-27 18:59 | 50.63809 | -5.36454 | 39299 ft | 482 kts | 68° |
| 2026-04-27 18:59 | 50.65982 | -5.26892 | 39301 ft | 481 kts | 68° |
| 2026-04-27 19:00 | 50.68220 | -5.16994 | 39301 ft | 482 kts | 68° |
| 2026-04-27 19:00 | 50.70321 | -5.07662 | 39298 ft | 483 kts | 68° |
| 2026-04-27 19:01 | 50.72515 | -4.97866 | 39293 ft | 483 kts | 68° |
| 2026-04-27 19:01 | 50.74687 | -4.88129 | 39296 ft | 483 kts | 68° |
| 2026-04-27 19:02 | 50.76869 | -4.78301 | 39291 ft | 483 kts | 68° |
| 2026-04-27 19:02 | 50.79043 | -4.68462 | 39294 ft | 484 kts | 68° |
| 2026-04-27 19:03 | 50.81162 | -4.58827 | 39298 ft | 485 kts | 68° |
| 2026-04-27 19:03 | 50.83256 | -4.49257 | 39295 ft | 485 kts | 69° |
| 2026-04-27 19:04 | 50.85334 | -4.39720 | 39293 ft | 485 kts | 69° |
| 2026-04-27 19:04 | 50.87377 | -4.30294 | 39287 ft | 486 kts | 69° |
| 2026-04-27 19:05 | 50.89497 | -4.20479 | 39291 ft | 486 kts | 69° |
| 2026-04-27 19:05 | 50.91499 | -4.11157 | 39286 ft | 487 kts | 69° |
| 2026-04-27 19:06 | 50.93560 | -4.01520 | 39284 ft | 488 kts | 69° |
| 2026-04-27 19:06 | 50.95545 | -3.92197 | 39267 ft | 488 kts | 69° |
| 2026-04-27 19:07 | 50.97624 | -3.82380 | 39264 ft | 489 kts | 69° |
| 2026-04-27 19:07 | 50.99678 | -3.72639 | 39265 ft | 490 kts | 69° |
| 2026-04-27 19:08 | 51.01761 | -3.62712 | 39258 ft | 491 kts | 69° |
| 2026-04-27 19:08 | 51.03793 | -3.52976 | 39261 ft | 492 kts | 69° |
| 2026-04-27 19:09 | 51.05863 | -3.43015 | 39266 ft | 492 kts | 69° |
| 2026-04-27 19:09 | 51.07919 | -3.33065 | 39261 ft | 494 kts | 69° |
| 2026-04-27 19:10 | 51.10021 | -3.22851 | 39267 ft | 494 kts | 69° |
| 2026-04-27 19:10 | 51.12044 | -3.12957 | 39265 ft | 495 kts | 69° |
| 2026-04-27 19:11 | 51.14151 | -3.02615 | 39260 ft | 495 kts | 69° |
| 2026-04-27 19:11 | 51.16169 | -2.92648 | 39259 ft | 496 kts | 69° |
| 2026-04-27 19:12 | 51.18190 | -2.82618 | 39256 ft | 497 kts | 69° |
| 2026-04-27 19:12 | 51.20148 | -2.72853 | 39271 ft | 497 kts | 69° |
| 2026-04-27 19:13 | 51.22194 | -2.62594 | 39273 ft | 498 kts | 69° |
| 2026-04-27 19:13 | 51.24264 | -2.52161 | 39272 ft | 498 kts | 69° |
| 2026-04-27 19:14 | 51.26289 | -2.41900 | 39276 ft | 499 kts | 69° |
| 2026-04-27 19:14 | 51.28310 | -2.31605 | 39274 ft | 499 kts | 69° |
| 2026-04-27 19:15 | 51.30196 | -2.21948 | 39273 ft | 499 kts | 69° |
| 2026-04-27 19:15 | 51.32136 | -2.11959 | 39258 ft | 500 kts | 69° |
| 2026-04-27 19:16 | 51.34141 | -2.01590 | 39261 ft | 500 kts | 70° |
| 2026-04-27 19:16 | 51.36335 | -1.91748 | 39258 ft | 499 kts | 68° |
| 2026-04-27 19:17 | 51.38267 | -1.82577 | 39271 ft | 499 kts | 67° |
| 2026-04-27 19:17 | 51.40648 | -1.72120 | 39250 ft | 500 kts | 67° |
| 2026-04-27 19:18 | 51.42846 | -1.61822 | 39241 ft | 501 kts | 67° |
| 2026-04-27 19:18 | 51.45109 | -1.51640 | 39259 ft | 501 kts | 67° |
| 2026-04-27 19:19 | 51.47264 | -1.41583 | 39252 ft | 502 kts | 68° |
| 2026-04-27 19:19 | 51.49489 | -1.31358 | 39249 ft | 501 kts | 67° |
| 2026-04-27 19:20 | 51.51434 | -1.22287 | 39241 ft | 502 kts | 68° |
| 2026-04-27 19:20 | 51.53353 | -1.12436 | 39251 ft | 504 kts | 72° |
| 2026-04-27 19:21 | 51.55047 | -1.01772 | 39244 ft | 505 kts | 72° |
| 2026-04-27 19:21 | 51.56825 | -0.90765 | 39246 ft | 506 kts | 72° |
| 2026-04-27 19:22 | 51.58522 | -0.80036 | 39248 ft | 506 kts | 72° |
| 2026-04-27 19:22 | 51.60200 | -0.69456 | 39248 ft | 507 kts | 72° |
| 2026-04-27 19:23 | 51.61840 | -0.59005 | 39243 ft | 508 kts | 73° |
| 2026-04-27 19:23 | 51.63482 | -0.48481 | 39252 ft | 508 kts | 72° |
| 2026-04-27 19:24 | 51.65079 | -0.38196 | 39301 ft | 509 kts | 73° |
| 2026-04-27 19:24 | 51.66587 | -0.28382 | 39302 ft | 510 kts | 72° |
| 2026-04-27 19:25 | 51.68343 | -0.18145 | 39320 ft | 507 kts | 70° |
| 2026-04-27 19:25 | 51.69979 | -0.06943 | 39299 ft | 511 kts | 72° |
| 2026-04-27 19:26 | 51.71740 | 0.03429 | 39280 ft | 510 kts | 72° |
| 2026-04-27 19:26 | 51.73319 | 0.14225 | 39267 ft | 511 kts | 73° |
| 2026-04-27 19:27 | 51.75079 | 0.25273 | 39272 ft | 510 kts | 72° |
| 2026-04-27 19:27 | 51.76757 | 0.36369 | 39274 ft | 510 kts | 73° |
| 2026-04-27 19:28 | 51.78446 | 0.47496 | 39270 ft | 510 kts | 72° |
| 2026-04-27 19:28 | 51.80128 | 0.58599 | 39268 ft | 510 kts | 73° |
| 2026-04-27 19:29 | 51.81789 | 0.69682 | 39272 ft | 509 kts | 72° |
| 2026-04-27 19:29 | 51.83530 | 0.80769 | 39271 ft | 508 kts | 71° |
| 2026-04-27 19:30 | 51.85493 | 0.91701 | 39259 ft | 507 kts | 74° |
| 2026-04-27 19:30 | 51.86215 | 1.03134 | 38987 ft | 514 kts | 88° |
| 2026-04-27 19:30 | 51.86161 | 1.08919 | 38730 ft | 516 kts | 89° |
| 2026-04-27 19:31 | 51.86016 | 1.14726 | 38474 ft | 517 kts | 90° |
| 2026-04-27 19:31 | 51.85834 | 1.20507 | 38212 ft | 517 kts | 91° |
| 2026-04-27 19:31 | 51.85635 | 1.26346 | 37954 ft | 518 kts | 91° |
| 2026-04-27 19:31 | 51.85432 | 1.32181 | 37688 ft | 518 kts | 91° |
| 2026-04-27 19:32 | 51.85278 | 1.37997 | 37426 ft | 517 kts | 88° |
| 2026-04-27 19:32 | 51.85400 | 1.43807 | 37168 ft | 517 kts | 84° |
| 2026-04-27 19:32 | 51.85677 | 1.49599 | 36916 ft | 517 kts | 83° |
| 2026-04-27 19:32 | 51.86070 | 1.55403 | 36661 ft | 516 kts | 77° |
| 2026-04-27 19:33 | 51.86962 | 1.60949 | 36411 ft | 513 kts | 68° |
| 2026-04-27 19:33 | 51.87778 | 1.64548 | 36221 ft | 512 kts | 65° |
| 2026-04-27 19:33 | 51.89644 | 1.71588 | 35870 ft | 512 kts | 63° |
| 2026-04-27 19:33 | 51.91161 | 1.76893 | 35017 ft | 513 kts | 62° |
| 2026-04-27 19:34 | 51.92686 | 1.82061 | 34226 ft | 508 kts | 62° |
| 2026-04-27 19:34 | 51.94212 | 1.87141 | 33379 ft | 503 kts | 62° |
| 2026-04-27 19:34 | 51.95773 | 1.92280 | 32543 ft | 499 kts | 61° |
| 2026-04-27 19:34 | 51.97304 | 1.97281 | 31718 ft | 495 kts | 62° |
| 2026-04-27 19:35 | 51.98837 | 2.02268 | 30916 ft | 494 kts | 62° |
| 2026-04-27 19:35 | 52.00375 | 2.07245 | 30059 ft | 491 kts | 62° |
| 2026-04-27 19:35 | 52.01887 | 2.12116 | 29250 ft | 484 kts | 62° |
| 2026-04-27 19:35 | 52.03360 | 2.16858 | 28598 ft | 476 kts | 62° |
| 2026-04-27 19:36 | 52.04848 | 2.21640 | 27849 ft | 471 kts | 62° |
| 2026-04-27 19:36 | 52.06317 | 2.26358 | 27066 ft | 468 kts | 62° |
| 2026-04-27 19:36 | 52.07781 | 2.31060 | 26310 ft | 466 kts | 62° |
| 2026-04-27 19:36 | 52.09241 | 2.35747 | 25538 ft | 462 kts | 62° |
| 2026-04-27 19:37 | 52.10688 | 2.40389 | 24766 ft | 457 kts | 62° |
| 2026-04-27 19:37 | 52.12105 | 2.44939 | 23981 ft | 452 kts | 62° |
| 2026-04-27 19:37 | 52.13523 | 2.49497 | 23296 ft | 444 kts | 62° |
| 2026-04-27 19:37 | 52.14895 | 2.53915 | 23274 ft | 425 kts | 62° |
| 2026-04-27 19:38 | 52.16212 | 2.58162 | 23271 ft | 420 kts | 62° |
| 2026-04-27 19:38 | 52.17524 | 2.62392 | 23268 ft | 417 kts | 62° |
| 2026-04-27 19:38 | 52.18679 | 2.66724 | 23264 ft | 415 kts | 68° |
| 2026-04-27 19:38 | 52.19691 | 2.71072 | 23270 ft | 412 kts | 67° |
| 2026-04-27 19:39 | 52.20876 | 2.75349 | 23278 ft | 408 kts | 59° |
| 2026-04-27 19:39 | 52.22321 | 2.79262 | 23273 ft | 405 kts | 54° |
| 2026-04-27 19:39 | 52.23887 | 2.83097 | 23271 ft | 402 kts | 55° |
| 2026-04-27 19:39 | 52.25329 | 2.86960 | 23267 ft | 401 kts | 59° |
| 2026-04-27 19:40 | 52.26669 | 2.90939 | 23268 ft | 399 kts | 59° |
| 2026-04-27 19:40 | 52.28032 | 2.94862 | 23264 ft | 399 kts | 58° |
| 2026-04-27 19:40 | 52.28992 | 2.97486 | 23265 ft | 400 kts | 57° |
| 2026-04-27 19:40 | 52.30413 | 3.01367 | 23270 ft | 401 kts | 58° |
| 2026-04-27 19:41 | 52.32271 | 3.06625 | 23270 ft | 400 kts | 58° |
| 2026-04-27 19:41 | 52.33666 | 3.10593 | 23219 ft | 409 kts | 58° |
| 2026-04-27 19:41 | 52.35139 | 3.14721 | 22631 ft | 433 kts | 58° |
| 2026-04-27 19:41 | 52.36654 | 3.18972 | 22028 ft | 431 kts | 59° |
| 2026-04-27 19:42 | 52.37659 | 3.21821 | 21676 ft | 425 kts | 59° |
| 2026-04-27 19:42 | 52.39111 | 3.25954 | 21192 ft | 418 kts | 59° |
| 2026-04-27 19:42 | 52.40545 | 3.30023 | 20698 ft | 412 kts | 59° |
| 2026-04-27 19:42 | 52.41995 | 3.34130 | 20183 ft | 408 kts | 59° |
| 2026-04-27 19:43 | 52.43403 | 3.38134 | 19688 ft | 403 kts | 59° |
| 2026-04-27 19:43 | 52.44696 | 3.42102 | 19196 ft | 400 kts | 68° |
| 2026-04-27 19:43 | 52.45479 | 3.46466 | 18708 ft | 398 kts | 77° |
| 2026-04-27 19:43 | 52.46077 | 3.50865 | 18179 ft | 394 kts | 78° |
| 2026-04-27 19:44 | 52.46659 | 3.55238 | 17690 ft | 390 kts | 77° |
| 2026-04-27 19:44 | 52.47298 | 3.59613 | 17211 ft | 388 kts | 76° |
| 2026-04-27 19:44 | 52.47924 | 3.63846 | 16730 ft | 386 kts | 76° |
| 2026-04-27 19:44 | 52.48528 | 3.68107 | 16253 ft | 383 kts | 77° |
| 2026-04-27 19:45 | 52.49118 | 3.72340 | 15772 ft | 380 kts | 76° |
| 2026-04-27 19:45 | 52.49715 | 3.76566 | 15087 ft | 380 kts | 76° |
| 2026-04-27 19:45 | 52.50314 | 3.80766 | 14601 ft | 369 kts | 76° |
| 2026-04-27 19:45 | 52.50885 | 3.84823 | 14162 ft | 364 kts | 76° |
| 2026-04-27 19:46 | 52.51453 | 3.88881 | 13670 ft | 366 kts | 76° |
| 2026-04-27 19:46 | 52.52018 | 3.92912 | 13217 ft | 361 kts | 77° |
| 2026-04-27 19:46 | 52.52240 | 3.97000 | 12789 ft | 360 kts | 95° |
| 2026-04-27 19:46 | 52.51648 | 4.00919 | 12331 ft | 346 kts | 111° |
| 2026-04-27 19:47 | 52.50735 | 4.04414 | 11951 ft | 324 kts | 115° |
| 2026-04-27 19:47 | 52.49841 | 4.07727 | 11574 ft | 311 kts | 112° |
| 2026-04-27 19:47 | 52.49062 | 4.10974 | 11200 ft | 298 kts | 112° |
| 2026-04-27 19:47 | 52.48007 | 4.13766 | 10890 ft | 284 kts | 134° |
| 2026-04-27 19:48 | 52.46604 | 4.15943 | 10557 ft | 273 kts | 140° |
| 2026-04-27 19:48 | 52.45166 | 4.17912 | 10264 ft | 264 kts | 142° |
| 2026-04-27 19:48 | 52.43760 | 4.19790 | 9970 ft | 256 kts | 142° |
| 2026-04-27 19:48 | 52.42394 | 4.21604 | 9694 ft | 248 kts | 142° |
| 2026-04-27 19:49 | 52.41058 | 4.23368 | 9433 ft | 245 kts | 142° |
| 2026-04-27 19:49 | 52.39721 | 4.25120 | 9173 ft | 248 kts | 142° |
| 2026-04-27 19:49 | 52.38477 | 4.26740 | 8929 ft | 248 kts | 142° |
| 2026-04-27 19:49 | 52.37126 | 4.28489 | 8651 ft | 248 kts | 142° |
| 2026-04-27 19:50 | 52.35794 | 4.30202 | 8392 ft | 246 kts | 142° |
| 2026-04-27 19:50 | 52.34458 | 4.31906 | 7898 ft | 237 kts | 142° |
| 2026-04-27 19:50 | 52.33173 | 4.33523 | 7292 ft | 234 kts | 142° |
| 2026-04-27 19:50 | 52.31883 | 4.35118 | 6715 ft | 232 kts | 142° |
| 2026-04-27 19:51 | 52.30584 | 4.36693 | 6096 ft | 231 kts | 142° |
| 2026-04-27 19:51 | 52.29313 | 4.38202 | 5763 ft | 218 kts | 142° |
| 2026-04-27 19:51 | 52.28871 | 4.38721 | 5657 ft | 212 kts | 142° |
| 2026-04-27 19:52 | 52.27710 | 4.40069 | 5442 ft | 199 kts | 142° |
| 2026-04-27 19:52 | 52.26620 | 4.41326 | 5282 ft | 186 kts | 142° |
| 2026-04-27 19:52 | 52.25583 | 4.42512 | 5109 ft | 176 kts | 142° |
| 2026-04-27 19:52 | 52.24605 | 4.43625 | 4940 ft | 167 kts | 142° |
| 2026-04-27 19:53 | 52.22656 | 4.45841 | 4145 ft | 177 kts | 142° |
| 2026-04-27 19:53 | 52.21647 | 4.46988 | 3714 ft | 181 kts | 142° |
| 2026-04-27 19:53 | 52.20762 | 4.48435 | 3348 ft | 175 kts | 117° |
| 2026-04-27 19:54 | 52.20377 | 4.50175 | 3172 ft | 160 kts | 92° |
| 2026-04-27 19:54 | 52.20496 | 4.51895 | 2968 ft | 149 kts | 66° |
| 2026-04-27 19:54 | 52.20902 | 4.53370 | 2814 ft | 136 kts | 63° |
| 2026-04-27 19:54 | 52.21288 | 4.54688 | 2630 ft | 123 kts | 61° |
| 2026-04-27 19:55 | 52.21738 | 4.55929 | 2622 ft | 139 kts | 53° |
| 2026-04-27 19:55 | 52.22341 | 4.57049 | 2850 ft | 116 kts | 48° |
| 2026-04-27 19:55 | 52.22862 | 4.58127 | 2526 ft | 127 kts | 52° |
| 2026-04-27 19:55 | 52.23397 | 4.59325 | 2382 ft | 134 kts | 54° |
| 2026-04-27 19:56 | 52.23904 | 4.60595 | 2318 ft | 129 kts | 57° |
| 2026-04-27 19:56 | 52.24351 | 4.61811 | 1972 ft | 125 kts | 60° |
| 2026-04-27 19:56 | 52.24791 | 4.63009 | 1684 ft | 121 kts | 59° |
| 2026-04-27 19:56 | 52.25204 | 4.64180 | 1372 ft | 116 kts | 58° |
| 2026-04-27 19:57 | 52.25647 | 4.65275 | 1049 ft | 116 kts | 55° |
| 2026-04-27 19:57 | 52.26094 | 4.66386 | 840 ft | 117 kts | 57° |
| 2026-04-27 19:57 | 52.26505 | 4.67494 | 724 ft | 114 kts | 58° |
| 2026-04-27 19:57 | 52.26920 | 4.68627 | 532 ft | 119 kts | 55° |
| 2026-04-27 19:58 | 52.27372 | 4.69763 | 452 ft | 115 kts | 53° |
| 2026-04-27 19:58 | 52.27810 | 4.70859 | 306 ft | 119 kts | 56° |
| 2026-04-27 19:58 | 52.28237 | 4.71977 | 209 ft | 113 kts | 53° |
| 2026-04-27 19:58 | 52.28668 | 4.73063 | 88 ft | 111 kts | 57° |
| 2026-04-27 19:59 | 52.29074 | 4.74140 | 15 ft | 107 kts | 56° |
| 2026-04-27 19:59 | 52.29395 | 4.74967 | 5 ft | 60 kts | 58° |
| 2026-04-27 19:59 | 52.29539 | 4.75345 | 5 ft | 27 kts | 58° |
| 2026-04-27 19:59 | 52.29607 | 4.75528 | 5 ft | 22 kts | 59° |
| 2026-04-27 20:00 | 52.29751 | 4.75780 | 5 ft | 36 kts | 28° |
| 2026-04-27 20:00 | 52.29933 | 4.75935 | 5 ft | 24 kts | 28° |
| 2026-04-27 20:00 | 52.30030 | 4.76083 | 5 ft | 17 kts | 57° |
| 2026-04-27 20:00 | 52.30084 | 4.76225 | 5 ft | 13 kts | 58° |
| 2026-04-27 20:01 | 52.30125 | 4.76333 | 6 ft | 10 kts | 58° |
| 2026-04-27 20:01 | 52.30161 | 4.76427 | 7 ft | 12 kts | 57° |
| 2026-04-27 20:01 | 52.30204 | 4.76537 | 6 ft | 10 kts | 60° |
| 2026-04-27 20:01 | 52.30245 | 4.76649 | 6 ft | 14 kts | 59° |
| 2026-04-27 20:02 | 52.30302 | 4.76801 | 5 ft | 17 kts | 58° |
| 2026-04-27 20:02 | 52.30373 | 4.76979 | 5 ft | 20 kts | 57° |
| 2026-04-27 20:02 | 52.30452 | 4.77188 | 5 ft | 22 kts | 58° |
| 2026-04-27 20:02 | 52.30527 | 4.77381 | 5 ft | 18 kts | 58° |
| 2026-04-27 20:03 | 52.30586 | 4.77530 | 6 ft | 13 kts | 51° |
| 2026-04-27 20:03 | 52.30653 | 4.77586 | 6 ft | 9 kts | 11° |
| 2026-04-27 20:03 | 52.30758 | 4.77597 | 6 ft | 21 kts | 4° |
| 2026-04-27 20:03 | 52.30891 | 4.77612 | 6 ft | 17 kts | 3° |
| 2026-04-27 20:04 | 52.30997 | 4.77620 | 6 ft | 14 kts | 2° |
| 2026-04-27 20:04 | 52.31080 | 4.77627 | 6 ft | 10 kts | 3° |
| 2026-04-27 20:04 | 52.31144 | 4.77634 | 6 ft | 8 kts | 4° |
| 2026-04-27 20:04 | 52.31198 | 4.77640 | 6 ft | 8 kts | 4° |
| 2026-04-27 20:05 | 52.31255 | 4.77647 | 6 ft | 9 kts | 3° |
| 2026-04-27 20:05 | 52.31322 | 4.77653 | 6 ft | 12 kts | 3° |
| 2026-04-27 20:05 | 52.31426 | 4.77651 | 6 ft | 17 kts | 350° |
| 2026-04-27 20:05 | 52.31508 | 4.77566 | 6 ft | 12 kts | 315° |
| 2026-04-27 20:06 | 52.31564 | 4.77458 | 6 ft | 12 kts | 300° |
| 2026-04-27 20:06 | 52.31577 | 4.77308 | 5 ft | 16 kts | 266° |
| 2026-04-27 20:06 | 52.31571 | 4.77141 | 5 ft | 14 kts | 265° |
| 2026-04-27 20:06 | 52.31565 | 4.76966 | 5 ft | 17 kts | 268° |
| 2026-04-27 20:07 | 52.31557 | 4.76790 | 5 ft | 14 kts | 266° |
| 2026-04-27 20:07 | 52.31552 | 4.76641 | 6 ft | 13 kts | 268° |
| 2026-04-27 20:07 | 52.31532 | 4.76520 | 6 ft | 6 kts | 219° |
| 2026-04-27 20:07 | 52.31485 | 4.76471 | 6 ft | 9 kts | 212° |
| 2026-04-27 20:08 | 52.31465 | 4.76437 | 6 ft | 2 kts | 244° |
| 2026-04-27 20:08 | 52.31462 | 4.76386 | 6 ft | 6 kts | 263° |
| 2026-04-27 20:08 | 52.31450 | 4.76353 | 6 ft | 1 kts | 222° |
| 2026-04-27 20:08 | 52.31419 | 4.76324 | 5 ft | 7 kts | 208° |
| 2026-04-27 20:09 | 52.31383 | 4.76293 | 5 ft | 5 kts | 207° |
| 2026-04-27 20:09 | 52.31376 | 4.76287 | 5 ft | 0 kts | 206° |